Radiosonde details



Informationen :

Serial : X3123532
Type : RS41-SGE
Frequency : 403.000MHz
Launchsite : Keflavikurflugvollur
Nearest town : Mosfellsbær, IS (37km)

Altitude (Max) : 30658m at 2026-09-06 00:44:45
Speed (Max) : 120km/h at altitude 10173m

Average speed : 43km/h
Average ascent rate : 5m/s
Average descent rate : -19m/s
Ascent rate (Max) : 7.8m/s
Descent rate (Max): -40m/s

First frame :
DL9RDZ-2 at 2026-09-05 23:03:36 at altitude 713m (OG: 671m)
Last frame :
DL9RDZ-1 at 2026-09-06 01:09:18 at altitude 4366m (OG: 4324m)

Flighttime : 2h5m42s
Ascent time : 1h41m9s
Descent time : 24m33s
Uptime : -
Killtimer : 8h06m

Distance (Straight line distance): 86km

Distance (Route):


Frames : 661


Measurement :

Temperature : -13.7°C
Humidity : 3.7%
Pressure : 0hPa


Vertical profile (SkewT) :


Elevation profile :



Receiving stations :


Receiver Frames First received Last received
DL9RDZ-1 661 2026-09-05 23:03:36 2026-09-06 01:09:18

Share per receiver :



All frames :


Receiver Date Latitude Longitude Direction Speed Altitude Climb Temperature Humidity Pressure Voltage Killtimer Uptime BKT XDATA
DL9RDZ-12026-09-06 01:09:1864.37676-21.10493349°13km/h4366m-11.3m/s-13.7°C3.7%0hPa0V08:06:0000:00:0000:00:00
DL9RDZ-12026-09-06 01:09:0764.37641-21.10490359°13km/h4486m-8.1m/s-14.4°C5.1%0hPa0V00:00:0000:00:0000:00:00
DL9RDZ-12026-09-06 01:08:5764.37605-21.1049416km/h4590m-11.4m/s-15.2°C6.4%0hPa0V00:00:0000:00:0000:00:00
DL9RDZ-12026-09-06 01:08:4564.37563-21.1050416km/h4724m-11.2m/s-16.3°C7.5%0hPa0V00:00:0000:00:0000:00:00
DL9RDZ-12026-09-06 01:08:3464.37520-21.1052521°16km/h4850m-10.3m/s-16.8°C5.8%0hPa0V00:00:0000:00:0000:00:00
DL9RDZ-12026-09-06 01:08:2364.37475-21.1055317°15km/h4970m-12.3m/s-17.7°C5.9%0hPa0V00:00:0000:00:0000:00:00
DL9RDZ-12026-09-06 01:06:0864.36881-21.1167160°38km/h6504m-12.1m/s-29.0°C16.1%0hPa0V00:00:0000:00:0000:00:00
DL9RDZ-12026-09-06 01:05:5264.36778-21.1202154°51km/h6690m-11.3m/s-29.3°C11.9%0hPa0V00:00:0000:00:0000:00:00
DL9RDZ-12026-09-06 01:05:4264.36700-21.1225652°53km/h6813m-10.6m/s-29.8°C10.4%0hPa0V08:10:0000:00:0000:00:00
DL9RDZ-12026-09-06 01:05:3164.36605-21.1251348°55km/h6941m-12.6m/s-30.5°C9.8%0hPa0V08:10:0000:00:0000:00:00
DL9RDZ-12026-09-06 01:05:2064.36506-21.1275150°51km/h7072m-11.0m/s-31.4°C10.5%0hPa0V08:10:0000:00:0000:00:00
DL9RDZ-12026-09-06 01:05:0964.36425-21.1300658°51km/h7199m-11.1m/s-32.2°C12.6%0hPa0V08:10:0000:00:0000:00:00
DL9RDZ-12026-09-06 01:04:5864.36348-21.1329359°55km/h7329m-11.9m/s-33.0°C16.0%0hPa0V08:10:0000:00:0000:00:00
DL9RDZ-12026-09-06 01:04:4864.36266-21.1357856°62km/h7446m-12.8m/s-33.7°C21.9%0hPa0V08:11:0000:00:0000:00:00
DL9RDZ-12026-09-06 01:04:3764.36163-21.1391758°66km/h7577m-13.6m/s-34.3°C49.8%0hPa0V08:11:0000:00:0000:00:00
DL9RDZ-12026-09-06 01:04:1664.35960-21.1464558°75km/h7833m-13.5m/s-36.0°C59.3%0hPa0V08:11:0000:00:0000:00:00
DL9RDZ-12026-09-06 01:03:5564.35743-21.1544560°78km/h8092m-12.7m/s-37.9°C72.3%0hPa0V08:12:0000:00:0000:00:00
DL9RDZ-12026-09-06 01:03:4464.35625-21.1587158°80km/h8232m-13.6m/s-38.9°C70.5%0hPa0V08:12:0000:00:0000:00:00
DL9RDZ-12026-09-06 01:03:3464.35512-21.1626757°82km/h8359m-13.0m/s-40.0°C66.1%0hPa0V08:12:0000:00:0000:00:00
DL9RDZ-12026-09-06 01:03:2364.35385-21.1671558°84km/h8501m-13.6m/s-41.1°C65.0%0hPa0V08:12:0000:00:0000:00:00
DL9RDZ-12026-09-06 01:03:1264.35258-21.1717759°88km/h8644m-14.0m/s-42.2°C64.1%0hPa0V08:12:0000:00:0000:00:00
DL9RDZ-12026-09-06 01:03:0264.35138-21.1760758°88km/h8777m-14.4m/s-43.4°C65.1%0hPa0V08:12:0000:00:0000:00:00
DL9RDZ-12026-09-06 01:02:5264.35016-21.1803858°89km/h8911m-12.2m/s-44.5°C62.7%0hPa0V08:12:0000:00:0000:00:00
DL9RDZ-12026-09-06 01:02:4164.34880-21.1851558°89km/h9063m-15.0m/s-45.8°C62.5%0hPa0V08:12:0000:00:0000:00:00
DL9RDZ-12026-09-06 01:02:3064.34737-21.1899557°95km/h9204m-14.2m/s-47.0°C65.7%0hPa0V08:12:0000:00:0000:00:00
DL9RDZ-12026-09-06 01:02:2064.34596-21.1947458°102km/h9334m-13.1m/s-47.6°C70.6%0hPa0V08:13:0000:00:0000:00:00
DL9RDZ-12026-09-06 01:02:1064.34447-21.1998558°110km/h9465m-15.2m/s-48.2°C70.0%0hPa0V08:13:0000:00:0000:00:00
DL9RDZ-12026-09-06 01:02:0064.34292-21.2051858°113km/h9605m-15.7m/s-49.0°C67.0%0hPa0V08:13:0000:00:0000:00:00
DL9RDZ-12026-09-06 01:01:4964.34127-21.2111559°108km/h9764m-14.5m/s-49.9°C50.4%0hPa0V08:13:0000:00:0000:00:00
DL9RDZ-12026-09-06 01:01:3864.33969-21.2170760°108km/h9915m-15.1m/s-50.5°C46.0%0hPa0V08:13:0000:00:0000:00:00
DL9RDZ-12026-09-06 01:01:2864.33829-21.2225260°110km/h10056m-14.8m/s-51.3°C50.1%0hPa0V08:14:0000:00:0000:00:00
DL9RDZ-12026-09-06 01:01:1864.33687-21.2279459°108km/h10202m-15.2m/s-51.9°C36.9%0hPa0V08:14:0000:00:0000:00:00
DL9RDZ-12026-09-06 01:01:0764.33520-21.2337356°110km/h10360m-13.7m/s-52.5°C30.4%0hPa0V08:14:0000:00:0000:00:00
DL9RDZ-12026-09-06 01:00:5764.33360-21.2388055°106km/h10494m-14.3m/s-53.1°C25.5%0hPa0V08:14:0000:00:0000:00:00
DL9RDZ-12026-09-06 01:00:4664.33190-21.2443056°102km/h10650m-16.3m/s-54.3°C21.2%0hPa0V08:14:0000:00:0000:00:00
DL9RDZ-12026-09-06 01:00:3664.33034-21.2489951°99km/h10798m-13.8m/s-54.6°C18.6%0hPa0V08:15:0000:00:0000:00:00
DL9RDZ-12026-09-06 01:00:2564.32859-21.2537851°97km/h10954m-14.4m/s-54.3°C15.1%0hPa0V08:15:0000:00:0000:00:00
DL9RDZ-12026-09-06 01:00:1564.32705-21.2582054°97km/h11097m-13.7m/s-53.9°C11.3%0hPa0V08:15:0000:00:0000:00:00
DL9RDZ-12026-09-06 01:00:0464.32547-21.2631257°93km/h11246m-15.1m/s-52.6°C7.4%0hPa0V08:15:0000:00:0000:00:00
DL9RDZ-12026-09-06 00:59:5364.32424-21.2679263°80km/h11395m-14.6m/s-51.5°C5.2%0hPa0V08:15:0000:00:0000:00:00
DL9RDZ-12026-09-06 00:59:4364.32328-21.2717359°73km/h11546m-16.3m/s-51.8°C3.6%0hPa0V08:16:0000:00:0000:00:00
DL9RDZ-12026-09-06 00:59:3264.32221-21.2757763°71km/h11714m-16.9m/s-50.2°C2.2%0hPa0V08:16:0000:00:0000:00:00
DL9RDZ-12026-09-06 00:59:2264.32150-21.2794970°68km/h11857m-14.5m/s-49.2°C2.1%0hPa0V08:16:0000:00:0000:00:00
DL9RDZ-12026-09-06 00:59:1164.32095-21.2833573°60km/h12013m-14.4m/s-49.6°C1.8%0hPa0V08:16:0000:00:0000:00:00
DL9RDZ-12026-09-06 00:59:0164.32053-21.2861873°46km/h12155m-13.9m/s-49.3°C1.6%0hPa0V08:16:0000:00:0000:00:00
DL9RDZ-12026-09-06 00:58:5064.32006-21.2887760°46km/h12315m-14.5m/s-49.8°C1.6%0hPa0V08:17:0000:00:0000:00:00
DL9RDZ-12026-09-06 00:58:4064.31938-21.2910855°51km/h12468m-14.9m/s-50.0°C1.6%0hPa0V08:17:0000:00:0000:00:00
DL9RDZ-12026-09-06 00:58:2964.31858-21.2939360°51km/h12635m-15.2m/s-49.5°C1.5%0hPa0V08:17:0000:00:0000:00:00
DL9RDZ-12026-09-06 00:58:1964.31792-21.2965862°53km/h12786m-15.2m/s-49.9°C1.4%0hPa0V08:17:0000:00:0000:00:00
DL9RDZ-12026-09-06 00:58:0864.31722-21.2993564°47km/h12950m-15.0m/s-49.9°C1.5%0hPa0V08:17:0000:00:0000:00:00
DL9RDZ-12026-09-06 00:57:5764.31672-21.3019870°40km/h13122m-14.6m/s-49.9°C1.5%0hPa0V08:17:0000:00:0000:00:00
DL9RDZ-12026-09-06 00:57:4664.31623-21.3043261°42km/h13285m-13.4m/s-48.6°C1.3%0hPa0V08:17:0000:00:0000:00:00
DL9RDZ-12026-09-06 00:57:3664.31569-21.3063658°44km/h13445m-14.9m/s-48.0°C1.3%0hPa0V08:17:0000:00:0000:00:00
DL9RDZ-12026-09-06 00:57:2664.31504-21.3084752°49km/h13600m-17.2m/s-48.0°C1.2%0hPa0V08:17:0000:00:0000:00:00
DL9RDZ-12026-09-06 00:57:1564.31430-21.3108558°44km/h13768m-16.8m/s-48.0°C1.2%0hPa0V08:17:0000:00:0000:00:00
DL9RDZ-12026-09-06 00:57:0464.31351-21.3132153°49km/h13937m-15.2m/s-48.4°C1.2%0hPa0V08:18:0000:00:0000:00:00
DL9RDZ-12026-09-06 00:56:5464.31281-21.3156164°47km/h14090m-17.6m/s-48.2°C1.2%0hPa0V08:18:0000:00:0000:00:00
DL9RDZ-12026-09-06 00:56:4464.31236-21.3179067°40km/h14258m-16.3m/s-49.1°C1.2%0hPa0V08:18:0000:00:0000:00:00
DL9RDZ-12026-09-06 00:56:3464.31197-21.3199766°38km/h14415m-16.6m/s-49.1°C1.2%0hPa0V08:18:0000:00:0000:00:00
DL9RDZ-12026-09-06 00:56:2364.31170-21.3221577°35km/h14579m-16.0m/s-49.1°C1.2%0hPa0V08:19:0000:00:0000:00:00
DL9RDZ-12026-09-06 00:56:1364.31140-21.3239563°33km/h14738m-17.1m/s-50.2°C1.3%0hPa0V08:19:0000:00:0000:00:00
DL9RDZ-12026-09-06 00:56:0264.31081-21.3257752°42km/h14916m-17.0m/s-50.6°C1.3%0hPa0V08:19:0000:00:0000:00:00
DL9RDZ-12026-09-06 00:55:5264.31013-21.3279365°46km/h15075m-18.7m/s-49.3°C1.2%0hPa0V08:19:0000:00:0000:00:00
DL9RDZ-12026-09-06 00:55:4164.30972-21.3302368°38km/h15255m-16.4m/s-49.9°C1.3%0hPa0V08:19:0000:00:0000:00:00
DL9RDZ-12026-09-06 00:55:3164.30937-21.3323272°38km/h15425m-17.2m/s-48.7°C1.1%0hPa0V08:20:0000:00:0000:00:00
DL9RDZ-12026-09-06 00:55:2164.30907-21.3339254°27km/h15601m-16.7m/s-49.3°C1.2%0hPa0V08:20:0000:00:0000:00:00
DL9RDZ-12026-09-06 00:55:1064.30850-21.3354049°38km/h15783m-16.2m/s-48.5°C1.1%0hPa0V08:20:0000:00:0000:00:00
DL9RDZ-12026-09-06 00:55:0064.30791-21.3371958°37km/h15950m-15.1m/s-48.8°C1.1%0hPa0V08:20:0000:00:0000:00:00
DL9RDZ-12026-09-06 00:54:5064.30746-21.3389263°33km/h16114m-17.3m/s-49.0°C1.1%0hPa0V08:20:0000:00:0000:00:00
DL9RDZ-12026-09-06 00:54:3964.30719-21.3404872°27km/h16311m-19.1m/s-48.5°C1.0%0hPa0V08:21:0000:00:0000:00:00
DL9RDZ-12026-09-06 00:54:3064.30692-21.3420168°26km/h16472m-16.2m/s-48.6°C1.1%0hPa0V08:21:0000:00:0000:00:00
DL9RDZ-12026-09-06 00:54:1964.30669-21.3429656°18km/h16642m-16.4m/s-48.9°C1.1%0hPa0V08:21:0000:00:0000:00:00
DL9RDZ-12026-09-06 00:54:0964.30634-21.3443063°35km/h16817m-17.1m/s-49.1°C1.1%0hPa0V08:21:0000:00:0000:00:00
DL9RDZ-12026-09-06 00:53:5964.30592-21.3462961°40km/h16984m-16.9m/s-49.0°C1.1%0hPa0V08:21:0000:00:0000:00:00
DL9RDZ-12026-09-06 00:53:4864.30539-21.3487773°40km/h17179m-15.7m/s-49.0°C1.1%0hPa0V08:22:0000:00:0000:00:00
DL9RDZ-12026-09-06 00:53:3864.30507-21.3508463°37km/h17348m-17.8m/s-48.9°C1.1%0hPa0V08:22:0000:00:0000:00:00
DL9RDZ-12026-09-06 00:53:2764.30458-21.3528372°33km/h17548m-19.8m/s-49.1°C1.0%0hPa0V08:22:0000:00:0000:00:00
DL9RDZ-12026-09-06 00:53:1664.30443-21.3549081°29km/h17735m-17.8m/s-49.9°C1.1%0hPa0V08:22:0000:00:0000:00:00
DL9RDZ-12026-09-06 00:53:0664.30417-21.3563155°29km/h17916m-18.5m/s-50.7°C1.2%0hPa0V08:22:0000:00:0000:00:00
DL9RDZ-12026-09-06 00:52:5564.30376-21.3583274°37km/h18124m-18.6m/s-50.1°C1.1%0hPa0V08:23:0000:00:0000:00:00
DL9RDZ-12026-09-06 00:52:4464.30353-21.3603274°31km/h18341m-18.3m/s-50.1°C1.1%0hPa0V08:23:0000:00:0000:00:00
DL9RDZ-12026-09-06 00:52:3364.30327-21.3619859°27km/h18561m-17.7m/s-50.1°C1.1%0hPa0V08:23:0000:00:0000:00:00
DL9RDZ-12026-09-06 00:52:2364.30295-21.3635375°29km/h18762m-18.1m/s-50.8°C1.2%0hPa0V08:23:0000:00:0000:00:00
DL9RDZ-12026-09-06 00:52:1264.30256-21.3650753°33km/h18941m-20.8m/s-50.3°C1.1%0hPa0V08:23:0000:00:0000:00:00
DL9RDZ-12026-09-06 00:51:5064.30225-21.3685383°22km/h19352m-19.2m/s-50.0°C1.1%0hPa0V08:23:0000:00:0000:00:00
DL9RDZ-12026-09-06 00:51:3964.30191-21.3700651°35km/h19546m-20.4m/s-50.0°C1.1%0hPa0V08:23:0000:00:0000:00:00
DL9RDZ-12026-09-06 00:51:2864.30129-21.3719759°38km/h19754m-18.0m/s-50.0°C1.1%0hPa0V08:23:0000:00:0000:00:00
DL9RDZ-12026-09-06 00:51:1764.30083-21.3743475°38km/h19980m-23.0m/s-50.1°C1.0%0hPa0V08:24:0000:00:0000:00:00
DL9RDZ-12026-09-06 00:51:0664.30056-21.3764169°35km/h20182m-17.3m/s-50.4°C1.1%0hPa0V08:24:0000:00:0000:00:00
DL9RDZ-12026-09-06 00:50:5564.30026-21.3786084°35km/h20398m-22.2m/s-50.6°C1.1%0hPa0V08:24:0000:00:0000:00:00
DL9RDZ-12026-09-06 00:50:4464.30009-21.3806578°31km/h20626m-19.2m/s-50.4°C1.0%0hPa0V08:24:0000:00:0000:00:00
DL9RDZ-12026-09-06 00:50:3464.29987-21.3822069°31km/h20826m-18.6m/s-50.6°C1.1%0hPa0V08:24:0000:00:0000:00:00
DL9RDZ-12026-09-06 00:50:2364.29959-21.3841372°33km/h21051m-21.6m/s-50.6°C1.1%0hPa0V08:25:0000:00:0000:00:00
DL9RDZ-12026-09-06 00:50:1364.29945-21.3858085°26km/h21256m-21.8m/s-50.3°C1.0%0hPa0V08:25:0000:00:0000:00:00
DL9RDZ-12026-09-06 00:50:0264.29923-21.3872876°27km/h21491m-21.9m/s-50.7°C1.0%0hPa0V08:25:0000:00:0000:00:00
DL9RDZ-12026-09-06 00:49:5264.29901-21.3889064°29km/h21718m-23.3m/s-50.6°C1.1%0hPa0V08:25:0000:00:0000:00:00
DL9RDZ-12026-09-06 00:49:4164.29855-21.3905261°37km/h21921m-22.9m/s-50.3°C1.0%0hPa0V08:25:0000:00:0000:00:00
DL9RDZ-12026-09-06 00:49:3064.29826-21.3923476°29km/h22152m-19.5m/s-49.5°C1.0%0hPa0V08:26:0000:00:0000:00:00
DL9RDZ-12026-09-06 00:49:2064.29810-21.3937268°29km/h22344m-20.1m/s-49.9°C1.0%0hPa0V08:26:0000:00:0000:00:00
DL9RDZ-12026-09-06 00:49:0964.29765-21.3960874°47km/h22590m-19.2m/s-50.1°C1.0%0hPa0V08:26:0000:00:0000:00:00
DL9RDZ-12026-09-06 00:48:5964.29757-21.39880100°40km/h22788m-22.4m/s-49.3°C1.0%0hPa0V08:26:0000:00:0000:00:00
DL9RDZ-12026-09-06 00:48:4964.29770-21.4004282°22km/h22985m-21.8m/s-48.5°C0.9%0hPa0V08:26:0000:00:0000:00:00
DL9RDZ-12026-09-06 00:48:3964.29746-21.4018666°26km/h23221m-23.3m/s-48.1°C0.9%0hPa0V08:27:0000:00:0000:00:00
DL9RDZ-12026-09-06 00:48:2864.29721-21.4030452°22km/h23483m-23.8m/s-48.6°C1.0%0hPa0V08:27:0000:00:0000:00:00
DL9RDZ-12026-09-06 00:48:1864.29675-21.4044654°31km/h23728m-21.5m/s-48.0°C0.9%0hPa0V08:27:0000:00:0000:00:00
DL9RDZ-12026-09-06 00:48:0764.29641-21.4059571°26km/h23971m-26.8m/s-46.7°C0.8%0hPa0V08:27:0000:00:0000:00:00
DL9RDZ-12026-09-06 00:47:5664.29612-21.4073147°31km/h24266m-30.0m/s-47.8°C0.9%0hPa0V08:27:0000:00:0000:00:00
DL9RDZ-12026-09-06 00:47:4764.29548-21.4086948°35km/h24560m-31.7m/s-47.4°C0.8%0hPa0V08:28:0000:00:0000:00:00
DL9RDZ-12026-09-06 00:47:3564.29490-21.4105354°33km/h24917m-34.2m/s-48.1°C0.8%0hPa0V08:28:0000:00:0000:00:00
DL9RDZ-12026-09-06 00:47:2564.29439-21.4117548°35km/h25232m-32.4m/s-49.2°C0.9%0hPa0V08:28:0000:00:0000:00:00
DL9RDZ-12026-09-06 00:47:1564.29383-21.4130752°27km/h25545m-34.1m/s-49.6°C1.0%0hPa0V08:28:0000:00:0000:00:00
DL9RDZ-12026-09-06 00:47:0464.29352-21.4152686°38km/h25932m-32.7m/s-48.1°C0.9%0hPa0V08:28:0000:00:0000:00:00
DL9RDZ-12026-09-06 00:46:5364.29313-21.4168134°33km/h26294m-38.3m/s-47.0°C0.8%0hPa0V08:29:0000:00:0000:00:00
DL9RDZ-12026-09-06 00:46:4364.29227-21.4186455°51km/h26682m-36.0m/s-46.7°C0.8%0hPa0V08:29:0000:00:0000:00:00
DL9RDZ-12026-09-06 00:46:3164.29198-21.4219793°51km/h27077m-35.4m/s-46.1°C0.7%0hPa0V08:29:0000:00:0000:00:00
DL9RDZ-12026-09-06 00:46:2164.29205-21.4240887°26km/h27448m-35.2m/s-47.7°C0.8%0hPa0V08:29:0000:00:0000:00:00
DL9RDZ-12026-09-06 00:46:1064.29173-21.4258364°46km/h27784m-28.6m/s-48.8°C1.0%0hPa0V08:29:0000:00:0000:00:00
DL9RDZ-12026-09-06 00:45:5964.29156-21.4284982°31km/h28127m-35.4m/s-47.3°C0.9%0hPa0V08:29:0000:00:0000:00:00
DL9RDZ-12026-09-06 00:45:4864.29129-21.4301590°27km/h28478m-35.0m/s-46.3°C0.8%0hPa0V08:29:0000:00:0000:00:00
DL9RDZ-12026-09-06 00:45:3764.29131-21.4312562°13km/h28874m-39.9m/s-44.4°C0.7%0hPa0V08:29:0000:00:0000:00:00
DL9RDZ-12026-09-06 00:45:2764.29086-21.4326860°29km/h29316m-40.0m/s-45.7°C0.8%0hPa0V08:29:0000:00:0000:00:00
DL9RDZ-12026-09-06 00:45:1764.29059-21.4341046°22km/h29669m-37.7m/s-45.4°C0.8%0hPa0V00:00:0000:00:0000:00:00
DL9RDZ-12026-09-06 00:45:0564.29021-21.4356069°27km/h30070m-34.9m/s-44.8°C0.7%0hPa0V00:00:0000:00:0000:00:00
DL9RDZ-12026-09-06 00:44:5564.28989-21.4367185°26km/h30389m-19.6m/s-44.0°C0.7%0hPa0V00:00:0000:00:0000:00:00
DL9RDZ-12026-09-06 00:44:4564.28978-21.4385265°26km/h30658m-4.2m/s-44.2°C0.7%0hPa0V00:00:0000:00:0000:00:00
DL9RDZ-12026-09-06 00:44:3464.28952-21.4402370°37km/h30606m5.1m/s-44.2°C0.7%0hPa0V00:00:0000:00:0000:00:00
DL9RDZ-12026-09-06 00:44:2464.28927-21.4416472°26km/h30540m5.2m/s-44.1°C0.7%0hPa0V00:00:0000:00:0000:00:00
DL9RDZ-12026-09-06 00:44:1364.28898-21.4429362°33km/h30475m5.9m/s-44.0°C0.7%0hPa0V00:00:0000:00:0000:00:00
DL9RDZ-12026-09-06 00:44:0164.28856-21.4444864°16km/h30410m6.0m/s-44.0°C0.7%0hPa0V00:00:0000:00:0000:00:00
DL9RDZ-12026-09-06 00:43:5164.28820-21.4456049°18km/h30351m5.5m/s-44.3°C0.7%0hPa0V00:00:0000:00:0000:00:00
DL9RDZ-12026-09-06 00:43:4064.28795-21.4467963°31km/h30285m5.8m/s-44.3°C0.7%0hPa0V00:00:0000:00:0000:00:00
DL9RDZ-12026-09-06 00:43:2964.28762-21.4479367°13km/h30220m4.6m/s-44.2°C0.7%0hPa0V00:00:0000:00:0000:00:00
DL9RDZ-12026-09-06 00:43:1964.28730-21.4492971°29km/h30159m6.7m/s-44.5°C0.7%0hPa0V00:00:0000:00:0000:00:00
DL9RDZ-12026-09-06 00:43:0964.28701-21.4511675°38km/h30091m5.4m/s-44.6°C0.7%0hPa0V00:00:0000:00:0000:00:00
DL9RDZ-12026-09-06 00:42:5864.28682-21.4528879°26km/h30029m6.4m/s-44.9°C0.7%0hPa0V00:00:0000:00:0000:00:00
DL9RDZ-12026-09-06 00:42:4764.28651-21.4548354°18km/h29964m6.8m/s-44.9°C0.7%0hPa0V00:00:0000:00:0000:00:00
DL9RDZ-12026-09-06 00:42:3564.28618-21.4564969°27km/h29900m5.9m/s-45.2°C0.7%0hPa0V00:00:0000:00:0000:00:00
DL9RDZ-12026-09-06 00:42:2464.28580-21.4576967°24km/h29838m5.1m/s-45.3°C0.7%0hPa0V00:00:0000:00:0000:00:00
DL9RDZ-12026-09-06 00:42:1464.28553-21.4592173°26km/h29777m4.7m/s-45.3°C0.7%0hPa0V00:00:0000:00:0000:00:00
DL9RDZ-12026-09-06 00:42:0364.28526-21.4609368°37km/h29716m4.9m/s-45.5°C0.7%0hPa0V00:00:0000:00:0000:00:00
DL9RDZ-12026-09-06 00:41:5164.28515-21.4626983°24km/h29657m4.9m/s-45.8°C0.8%0hPa0V00:00:0000:00:0000:00:00
DL9RDZ-12026-09-06 00:41:4064.28497-21.4641987°22km/h29599m5.1m/s-45.7°C0.7%0hPa0V00:00:0000:00:0000:00:00
DL9RDZ-12026-09-06 00:41:3064.28492-21.4656074°24km/h29545m4.9m/s-45.8°C0.8%0hPa0V00:00:0000:00:0000:00:00
DL9RDZ-12026-09-06 00:41:2064.28471-21.4670178°37km/h29490m5.0m/s-45.8°C0.7%0hPa0V00:00:0000:00:0000:00:00
DL9RDZ-12026-09-06 00:41:0964.28440-21.4690978°31km/h29431m4.3m/s-45.9°C0.7%0hPa0V00:00:0000:00:0000:00:00
DL9RDZ-12026-09-06 00:40:5864.28392-21.4712961°42km/h29372m5.2m/s-46.3°C0.8%0hPa0V00:00:0000:00:0000:00:00
DL9RDZ-12026-09-06 00:40:4764.28338-21.4736955°40km/h29314m5.2m/s-46.7°C0.8%0hPa0V00:00:0000:00:0000:00:00
DL9RDZ-12026-09-06 00:40:3764.28291-21.4756365°31km/h29260m4.8m/s-46.6°C0.8%0hPa0V00:00:0000:00:0000:00:00
DL9RDZ-12026-09-06 00:40:2764.28248-21.4769575°27km/h29204m5.4m/s-46.5°C0.8%0hPa0V00:00:0000:00:0000:00:00
DL9RDZ-12026-09-06 00:40:1764.28219-21.4782333°22km/h29142m5.2m/s-46.3°C0.8%0hPa0V00:00:0000:00:0000:00:00
DL9RDZ-12026-09-06 00:40:0764.28191-21.4790554°16km/h29086m6.4m/s-46.1°C0.8%0hPa0V00:00:0000:00:0000:00:00
DL9RDZ-12026-09-06 00:39:5664.28179-21.4794288°15km/h29028m6.6m/s-45.7°C0.8%0hPa0V00:00:0000:00:0000:00:00
DL9RDZ-12026-09-06 00:39:4664.28168-21.48034125°11km/h28963m6.3m/s-45.3°C0.7%0hPa0V00:00:0000:00:0000:00:00
DL9RDZ-12026-09-06 00:39:3464.28176-21.4811487°15km/h28897m5.4m/s-45.4°C0.8%0hPa0V00:00:0000:00:0000:00:00
DL9RDZ-12026-09-06 00:39:2364.28204-21.48219121°15km/h28833m5.5m/s-45.6°C0.7%0hPa0V00:00:0000:00:0000:00:00
DL9RDZ-12026-09-06 00:39:1364.28230-21.48314116°35km/h28776m6.9m/s-46.2°C0.8%0hPa0V00:00:0000:00:0000:00:00
DL9RDZ-12026-09-06 00:39:0364.28249-21.48505107°26km/h28708m6.7m/s-46.5°C0.8%0hPa0V00:00:0000:00:0000:00:00
DL9RDZ-12026-09-06 00:38:5364.28250-21.4865185°20km/h28650m5.2m/s-46.6°C0.8%0hPa0V00:00:0000:00:0000:00:00
DL9RDZ-12026-09-06 00:38:4264.28226-21.4878758°26km/h28585m6.1m/s-46.6°C0.8%0hPa0V00:00:0000:00:0000:00:00
DL9RDZ-12026-09-06 00:38:3064.28206-21.48924103°27km/h28520m6.6m/s-47.1°C0.8%0hPa0V00:00:0000:00:0000:00:00
DL9RDZ-12026-09-06 00:38:2064.28198-21.4909464°24km/h28457m5.5m/s-47.2°C0.8%0hPa0V00:00:0000:00:0000:00:00
DL9RDZ-12026-09-06 00:38:0964.28182-21.4924977°29km/h28399m5.3m/s-47.3°C0.8%0hPa0V00:00:0000:00:0000:00:00
DL9RDZ-12026-09-06 00:38:0064.28148-21.4936865°24km/h28342m5.1m/s-47.4°C0.8%0hPa0V00:00:0000:00:0000:00:00
DL9RDZ-12026-09-06 00:37:4864.28110-21.4954262°35km/h28279m5.0m/s-47.6°C0.8%0hPa0V00:00:0000:00:0000:00:00
DL9RDZ-12026-09-06 00:37:3864.28088-21.4973068°31km/h28218m6.0m/s-47.9°C0.9%0hPa0V00:00:0000:00:0000:00:00
DL9RDZ-12026-09-06 00:37:2764.28099-21.49966101°44km/h28157m5.8m/s-47.7°C0.8%0hPa0V00:00:0000:00:0000:00:00
DL9RDZ-12026-09-06 00:37:1664.28101-21.50229110°42km/h28097m5.7m/s-47.8°C0.8%0hPa0V00:00:0000:00:0000:00:00
DL9RDZ-12026-09-06 00:37:0464.28097-21.5052990°44km/h28037m4.8m/s-48.0°C0.9%0hPa0V00:00:0000:00:0000:00:00
DL9RDZ-12026-09-06 00:36:5364.28086-21.5082577°53km/h27978m5.3m/s-48.2°C0.8%0hPa0V00:00:0000:00:0000:00:00
DL9RDZ-12026-09-06 00:36:4364.28056-21.5109480°38km/h27925m4.3m/s-48.7°C0.9%0hPa0V00:00:0000:00:0000:00:00
DL9RDZ-12026-09-06 00:36:3364.28010-21.5133470°47km/h27869m5.0m/s-48.9°C0.9%0hPa0V00:00:0000:00:0000:00:00
DL9RDZ-12026-09-06 00:36:2264.27954-21.5153554°35km/h27808m5.3m/s-48.9°C0.9%0hPa0V00:00:0000:00:0000:00:00
DL9RDZ-12026-09-06 00:36:1164.27911-21.5171243°31km/h27745m5.3m/s-48.7°C0.9%0hPa0V00:00:0000:00:0000:00:00
DL9RDZ-12026-09-06 00:36:0064.27869-21.5185060°22km/h27683m6.2m/s-48.5°C0.9%0hPa0V00:00:0000:00:0000:00:00
DL9RDZ-12026-09-06 00:35:5064.27839-21.5195174°22km/h27627m6.3m/s-48.4°C0.9%0hPa0V00:00:0000:00:0000:00:00
DL9RDZ-12026-09-06 00:35:3964.27830-21.5205067°16km/h27563m4.6m/s-48.2°C0.9%0hPa0V00:00:0000:00:0000:00:00
DL9RDZ-12026-09-06 00:35:3064.27840-21.52149109°13km/h27505m6.4m/s-47.9°C0.9%0hPa0V00:00:0000:00:0000:00:00
DL9RDZ-12026-09-06 00:35:1864.27857-21.52277112°22km/h27441m5.8m/s-47.5°C0.9%0hPa0V00:00:0000:00:0000:00:00
DL9RDZ-12026-09-06 00:35:0764.27875-21.5243295°29km/h27379m5.6m/s-47.0°C0.9%0hPa0V00:00:0000:00:0000:00:00
DL9RDZ-12026-09-06 00:34:5664.27895-21.52636107°37km/h27314m5.9m/s-46.6°C0.8%0hPa0V00:00:0000:00:0000:00:00
DL9RDZ-12026-09-06 00:34:4664.27906-21.52837100°42km/h27255m5.7m/s-46.2°C0.8%0hPa0V00:00:0000:00:0000:00:00
DL9RDZ-12026-09-06 00:34:3664.27920-21.53102104°40km/h27191m6.3m/s-45.7°C0.8%0hPa0V00:00:0000:00:0000:00:00
DL9RDZ-12026-09-06 00:34:2464.27934-21.5338494°42km/h27127m5.0m/s-45.7°C0.8%0hPa0V00:00:0000:00:0000:00:00
DL9RDZ-12026-09-06 00:34:1364.27936-21.5367292°51km/h27064m5.3m/s-45.9°C0.8%0hPa0V00:00:0000:00:0000:00:00
DL9RDZ-12026-09-06 00:34:0264.27952-21.5400586°44km/h27004m4.4m/s-46.1°C0.8%0hPa0V00:00:0000:00:0000:00:00
DL9RDZ-12026-09-06 00:33:5264.27931-21.5432779°55km/h26950m4.4m/s-46.5°C0.8%0hPa0V00:00:0000:00:0000:00:00
DL9RDZ-12026-09-06 00:33:4264.27892-21.5463060°60km/h26891m6.3m/s-47.2°C0.9%0hPa0V00:00:0000:00:0000:00:00
DL9RDZ-12026-09-06 00:33:3164.27834-21.5490659°44km/h26838m6.5m/s-47.2°C0.8%0hPa0V00:00:0000:00:0000:00:00
DL9RDZ-12026-09-06 00:33:2164.27749-21.5513962°47km/h26779m4.9m/s-47.1°C0.9%0hPa0V00:00:0000:00:0000:00:00
DL9RDZ-12026-09-06 00:33:0964.27670-21.5533436°38km/h26719m5.1m/s-47.2°C0.9%0hPa0V00:00:0000:00:0000:00:00
DL9RDZ-12026-09-06 00:33:0064.27593-21.5548939°46km/h26666m4.0m/s-47.1°C0.8%0hPa0V00:00:0000:00:0000:00:00
DL9RDZ-12026-09-06 00:32:4864.27510-21.5564558°37km/h26608m6.3m/s-47.0°C0.8%0hPa0V00:00:0000:00:0000:00:00
DL9RDZ-12026-09-06 00:32:3764.27425-21.5579632°37km/h26552m6.4m/s-47.0°C0.8%0hPa0V00:00:0000:00:0000:00:00
DL9RDZ-12026-09-06 00:32:2764.27352-21.5590122°40km/h26494m5.5m/s-46.8°C0.8%0hPa0V00:00:0000:00:0000:00:00
DL9RDZ-12026-09-06 00:32:1864.27270-21.5596617°31km/h26438m5.4m/s-46.8°C0.8%0hPa0V00:00:0000:00:0000:00:00
DL9RDZ-12026-09-06 00:32:0664.27178-21.5603619°35km/h26378m6.5m/s-47.0°C0.8%0hPa0V00:00:0000:00:0000:00:00
DL9RDZ-12026-09-06 00:31:5564.27112-21.5614843°33km/h26318m4.2m/s-47.6°C0.8%0hPa0V00:00:0000:00:0000:00:00
DL9RDZ-12026-09-06 00:31:4564.27065-21.5624272°27km/h26256m6.6m/s-48.0°C0.9%0hPa0V00:00:0000:00:0000:00:00
DL9RDZ-12026-09-06 00:31:3464.27032-21.5639567°27km/h26192m4.8m/s-48.2°C0.9%0hPa0V00:00:0000:00:0000:00:00
DL9RDZ-12026-09-06 00:31:2364.27006-21.5661764°33km/h26132m5.1m/s-48.2°C0.9%0hPa0V00:00:0000:00:0000:00:00
DL9RDZ-12026-09-06 00:31:1164.26982-21.5682581°35km/h26071m6.5m/s-48.5°C0.9%0hPa0V00:00:0000:00:0000:00:00
DL9RDZ-12026-09-06 00:31:0064.26959-21.5708785°46km/h26008m6.5m/s-48.5°C0.9%0hPa0V00:00:0000:00:0000:00:00
DL9RDZ-12026-09-06 00:30:5064.26930-21.5732273°44km/h25953m6.4m/s-48.6°C0.9%0hPa0V00:00:0000:00:0000:00:00
DL9RDZ-12026-09-06 00:30:3964.26884-21.5761161°44km/h25891m4.5m/s-48.6°C0.9%0hPa0V00:00:0000:00:0000:00:00
DL9RDZ-12026-09-06 00:30:2864.26832-21.5788065°49km/h25829m6.2m/s-49.1°C0.9%0hPa0V00:00:0000:00:0000:00:00
DL9RDZ-12026-09-06 00:30:1764.26765-21.5808556°46km/h25767m5.7m/s-49.1°C0.9%0hPa0V00:00:0000:00:0000:00:00
DL9RDZ-12026-09-06 00:30:0664.26708-21.5827751°29km/h25709m4.9m/s-49.7°C1.0%0hPa0V00:00:0000:00:0000:00:00
DL9RDZ-12026-09-06 00:29:5564.26653-21.5842033°29km/h25649m5.9m/s-50.0°C1.0%0hPa0V00:00:0000:00:0000:00:00
DL9RDZ-12026-09-06 00:29:4664.26584-21.5851232°29km/h25592m5.4m/s-50.0°C1.0%0hPa0V00:00:0000:00:0000:00:00
DL9RDZ-12026-09-06 00:29:3464.26501-21.5864941°40km/h25529m5.8m/s-49.9°C1.0%0hPa0V00:00:0000:00:0000:00:00
DL9RDZ-12026-09-06 00:29:2564.26430-21.5877643°35km/h25475m4.3m/s-50.4°C1.0%0hPa0V00:00:0000:00:0000:00:00
DL9RDZ-12026-09-06 00:29:1464.26356-21.5895143°40km/h25417m5.4m/s-50.3°C1.1%0hPa0V00:00:0000:00:0000:00:00
DL9RDZ-12026-09-06 00:29:0264.26275-21.5911038°31km/h25355m4.9m/s-50.0°C1.0%0hPa0V00:00:0000:00:0000:00:00
DL9RDZ-12026-09-06 00:28:5364.26202-21.5921843°29km/h25298m5.8m/s-49.8°C1.0%0hPa0V00:00:0000:00:0000:00:00
DL9RDZ-12026-09-06 00:28:4164.26139-21.5931931°26km/h25238m6.5m/s-49.7°C1.0%0hPa0V00:00:0000:00:0000:00:00
DL9RDZ-12026-09-06 00:28:3164.26090-21.5939328°27km/h25183m4.8m/s-49.3°C1.0%0hPa0V00:00:0000:00:0000:00:00
DL9RDZ-12026-09-06 00:28:2064.26021-21.5952131°38km/h25121m5.5m/s-48.8°C1.0%0hPa0V00:00:0000:00:0000:00:00
DL9RDZ-12026-09-06 00:28:1064.25947-21.5964243°40km/h25067m5.8m/s-48.6°C1.0%0hPa0V00:00:0000:00:0000:00:00
DL9RDZ-12026-09-06 00:27:5964.25870-21.5976646°38km/h25008m5.0m/s-48.5°C1.0%0hPa0V00:00:0000:00:0000:00:00
DL9RDZ-12026-09-06 00:27:4864.25801-21.5995051°40km/h24943m5.1m/s-48.5°C0.9%0hPa0V00:00:0000:00:0000:00:00
DL9RDZ-12026-09-06 00:27:3864.25751-21.6015861°38km/h24887m5.2m/s-48.7°C0.9%0hPa0V00:00:0000:00:0000:00:00
DL9RDZ-12026-09-06 00:27:2764.25690-21.6033253°33km/h24823m5.3m/s-48.4°C1.0%0hPa0V00:00:0000:00:0000:00:00
DL9RDZ-12026-09-06 00:27:1764.25617-21.6050845°26km/h24758m5.8m/s-48.4°C1.0%0hPa0V00:00:0000:00:0000:00:00
DL9RDZ-12026-09-06 00:27:0564.25555-21.6068053°37km/h24696m6.2m/s-48.0°C1.0%0hPa0V00:00:0000:00:0000:00:00
DL9RDZ-12026-09-06 00:26:5564.25502-21.6079548°37km/h24642m6.5m/s-47.7°C0.9%0hPa0V00:00:0000:00:0000:00:00
DL9RDZ-12026-09-06 00:26:4564.25426-21.6094340°31km/h24578m5.9m/s-47.4°C0.9%0hPa0V00:00:0000:00:0000:00:00
DL9RDZ-12026-09-06 00:26:3464.25355-21.6107141°35km/h24520m4.5m/s-47.2°C0.9%0hPa0V00:00:0000:00:0000:00:00
DL9RDZ-12026-09-06 00:26:2364.25275-21.6118250°35km/h24459m6.6m/s-47.2°C0.9%0hPa0V00:00:0000:00:0000:00:00
DL9RDZ-12026-09-06 00:26:1364.25230-21.6131136°27km/h24403m6.4m/s-47.6°C0.9%0hPa0V00:00:0000:00:0000:00:00
DL9RDZ-12026-09-06 00:26:0364.25172-21.6142539°26km/h24340m5.8m/s-47.7°C1.0%0hPa0V00:00:0000:00:0000:00:00
DL9RDZ-12026-09-06 00:25:5264.25121-21.6155557°31km/h24286m6.1m/s-47.5°C0.9%0hPa0V00:00:0000:00:0000:00:00
DL9RDZ-12026-09-06 00:25:4264.25092-21.6168461°27km/h24231m6.4m/s-47.7°C0.9%0hPa0V00:00:0000:00:0000:00:00
DL9RDZ-12026-09-06 00:25:3264.25069-21.6181881°20km/h24167m5.8m/s-47.6°C0.9%0hPa0V00:00:0000:00:0000:00:00
DL9RDZ-12026-09-06 00:25:2064.25047-21.6197987°22km/h24104m6.1m/s-47.5°C1.0%0hPa0V00:00:0000:00:0000:00:00
DL9RDZ-12026-09-06 00:25:0964.25029-21.6218082°33km/h24041m6.1m/s-47.2°C0.9%0hPa0V00:00:0000:00:0000:00:00
DL9RDZ-12026-09-06 00:24:5864.25009-21.6236882°33km/h23977m4.9m/s-46.9°C0.9%0hPa0V00:00:0000:00:0000:00:00
DL9RDZ-12026-09-06 00:24:4764.24981-21.6254975°33km/h23913m5.0m/s-47.0°C0.9%0hPa0V00:00:0000:00:0000:00:00
DL9RDZ-12026-09-06 00:24:3764.24950-21.6272053°33km/h23857m4.5m/s-48.0°C0.9%0hPa0V00:00:0000:00:0000:00:00
DL9RDZ-12026-09-06 00:24:2664.24915-21.6291169°33km/h23794m6.1m/s-48.3°C1.0%0hPa0V00:00:0000:00:0000:00:00
DL9RDZ-12026-09-06 00:24:0564.24850-21.6322465°24km/h23675m5.7m/s-48.4°C0.9%0hPa0V00:00:0000:00:0000:00:00
DL9RDZ-12026-09-06 00:23:5564.24821-21.6336850°26km/h23618m5.2m/s-48.6°C1.0%0hPa0V00:00:0000:00:0000:00:00
DL9RDZ-12026-09-06 00:23:4464.24787-21.6348663°31km/h23555m4.8m/s-48.6°C1.0%0hPa0V00:00:0000:00:0000:00:00
DL9RDZ-12026-09-06 00:23:3364.24772-21.6362269°22km/h23492m4.5m/s-48.7°C1.0%0hPa0V00:00:0000:00:0000:00:00
DL9RDZ-12026-09-06 00:23:2364.24760-21.6377784°24km/h23436m5.4m/s-48.6°C1.0%0hPa0V00:00:0000:00:0000:00:00
DL9RDZ-12026-09-06 00:23:1364.24748-21.6391179°24km/h23382m6.2m/s-48.5°C1.0%0hPa0V00:00:0000:00:0000:00:00
DL9RDZ-12026-09-06 00:23:0264.24732-21.6406680°27km/h23321m5.1m/s-48.4°C1.0%0hPa0V00:00:0000:00:0000:00:00
DL9RDZ-12026-09-06 00:22:5264.24713-21.6420361°29km/h23265m5.2m/s-48.0°C1.0%0hPa0V00:00:0000:00:0000:00:00
DL9RDZ-12026-09-06 00:22:4164.24689-21.6434265°22km/h23203m5.2m/s-47.8°C1.0%0hPa0V00:00:0000:00:0000:00:00
DL9RDZ-12026-09-06 00:22:3164.24653-21.6447766°24km/h23147m5.4m/s-48.1°C1.0%0hPa0V00:00:0000:00:0000:00:00
DL9RDZ-12026-09-06 00:22:2164.24629-21.6460853°26km/h23093m5.3m/s-48.2°C1.0%0hPa0V00:00:0000:00:0000:00:00
DL9RDZ-12026-09-06 00:22:1164.24606-21.6476092°26km/h23038m5.9m/s-48.3°C1.0%0hPa0V00:00:0000:00:0000:00:00
DL9RDZ-12026-09-06 00:22:0164.24602-21.6490188°18km/h22983m5.1m/s-48.4°C1.0%0hPa0V00:00:0000:00:0000:00:00
DL9RDZ-12026-09-06 00:21:5064.24612-21.6505186°27km/h22923m6.4m/s-48.5°C1.0%0hPa0V00:00:0000:00:0000:00:00
DL9RDZ-12026-09-06 00:21:3964.24631-21.65273104°42km/h22863m5.9m/s-48.8°C1.0%0hPa0V00:00:0000:00:0000:00:00
DL9RDZ-12026-09-06 00:21:2964.24634-21.65496101°42km/h22810m4.9m/s-49.1°C1.0%0hPa0V00:00:0000:00:0000:00:00
DL9RDZ-12026-09-06 00:21:1964.24632-21.6575881°47km/h22756m5.9m/s-49.4°C1.0%0hPa0V00:00:0000:00:0000:00:00
DL9RDZ-12026-09-06 00:21:0864.24620-21.6605375°46km/h22700m5.3m/s-49.4°C1.0%0hPa0V00:00:0000:00:0000:00:00
DL9RDZ-12026-09-06 00:20:5764.24583-21.6632374°49km/h22642m5.5m/s-49.7°C1.0%0hPa0V00:00:0000:00:0000:00:00
DL9RDZ-12026-09-06 00:20:4764.24526-21.6658061°44km/h22589m4.4m/s-50.0°C1.1%0hPa0V00:00:0000:00:0000:00:00
DL9RDZ-12026-09-06 00:20:3764.24479-21.6681652°46km/h22538m5.3m/s-50.4°C1.1%0hPa0V00:00:0000:00:0000:00:00
DL9RDZ-12026-09-06 00:20:2764.24414-21.6701965°38km/h22486m6.1m/s-50.1°C1.1%0hPa0V00:00:0000:00:0000:00:00
DL9RDZ-12026-09-06 00:20:1664.24348-21.6721964°38km/h22430m4.0m/s-49.9°C1.1%0hPa0V00:00:0000:00:0000:00:00
DL9RDZ-12026-09-06 00:20:0564.24291-21.6740655°27km/h22374m4.9m/s-49.8°C1.1%0hPa0V00:00:0000:00:0000:00:00
DL9RDZ-12026-09-06 00:19:5464.24260-21.6758648°27km/h22321m5.0m/s-49.7°C1.1%0hPa0V00:00:0000:00:0000:00:00
DL9RDZ-12026-09-06 00:19:4464.24235-21.6771075°29km/h22270m5.1m/s-49.4°C1.1%0hPa0V00:00:0000:00:0000:00:00
DL9RDZ-12026-09-06 00:19:3364.24210-21.6787776°31km/h22211m5.1m/s-49.5°C1.1%0hPa0V00:00:0000:00:0000:00:00
DL9RDZ-12026-09-06 00:19:2264.24174-21.6805882°27km/h22154m5.0m/s-49.8°C1.1%0hPa0V00:00:0000:00:0000:00:00
DL9RDZ-12026-09-06 00:19:1164.24152-21.6822663°29km/h22098m4.0m/s-49.7°C1.1%0hPa0V00:00:0000:00:0000:00:00
DL9RDZ-12026-09-06 00:19:0064.24115-21.6840166°33km/h22041m4.9m/s-50.3°C1.1%0hPa0V00:00:0000:00:0000:00:00
DL9RDZ-12026-09-06 00:18:5064.24072-21.6855748°33km/h21988m5.8m/s-50.5°C1.1%0hPa0V00:00:0000:00:0000:00:00
DL9RDZ-12026-09-06 00:18:3964.24009-21.6870757°31km/h21929m4.9m/s-50.3°C1.1%0hPa0V00:00:0000:00:0000:00:00
DL9RDZ-12026-09-06 00:18:2864.23958-21.6886864°31km/h21868m5.3m/s-50.2°C1.1%0hPa0V00:00:0000:00:0000:00:00
DL9RDZ-12026-09-06 00:18:1864.23920-21.6900059°26km/h21815m4.8m/s-50.1°C1.1%0hPa0V00:00:0000:00:0000:00:00
DL9RDZ-12026-09-06 00:18:0864.23879-21.6911147°27km/h21764m5.9m/s-50.2°C1.1%0hPa0V00:00:0000:00:0000:00:00
DL9RDZ-12026-09-06 00:17:5764.23846-21.6925867°29km/h21705m4.9m/s-50.4°C1.1%0hPa0V00:00:0000:00:0000:00:00
DL9RDZ-12026-09-06 00:17:4664.23828-21.6941093°26km/h21645m6.3m/s-50.6°C1.1%0hPa0V00:00:0000:00:0000:00:00
DL9RDZ-12026-09-06 00:17:3664.23826-21.6956893°29km/h21590m6.0m/s-50.7°C1.1%0hPa0V00:00:0000:00:0000:00:00
DL9RDZ-12026-09-06 00:17:2664.23816-21.6972383°27km/h21538m4.2m/s-50.6°C1.1%0hPa0V00:00:0000:00:0000:00:00
DL9RDZ-12026-09-06 00:17:1564.23811-21.6987966°27km/h21480m6.0m/s-50.6°C1.1%0hPa0V00:00:0000:00:0000:00:00
DL9RDZ-12026-09-06 00:17:0464.23802-21.7004472°20km/h21426m4.3m/s-50.8°C1.1%0hPa0V00:00:0000:00:0000:00:00
DL9RDZ-12026-09-06 00:16:5364.23800-21.70186100°24km/h21371m5.2m/s-50.7°C1.1%0hPa0V00:00:0000:00:0000:00:00
DL9RDZ-12026-09-06 00:16:4364.23792-21.7033291°33km/h21318m6.2m/s-51.4°C1.2%0hPa0V00:00:0000:00:0000:00:00
DL9RDZ-12026-09-06 00:16:3264.23786-21.7052485°31km/h21260m5.9m/s-51.6°C1.2%0hPa0V00:00:0000:00:0000:00:00
DL9RDZ-12026-09-06 00:16:2164.23779-21.7071266°27km/h21203m4.7m/s-51.8°C1.2%0hPa0V00:00:0000:00:0000:00:00
DL9RDZ-12026-09-06 00:16:1164.23768-21.7088177°31km/h21153m3.9m/s-52.0°C1.2%0hPa0V00:00:0000:00:0000:00:00
DL9RDZ-12026-09-06 00:16:0064.23760-21.7108881°31km/h21097m5.7m/s-51.9°C1.3%0hPa0V00:00:0000:00:0000:00:00
DL9RDZ-12026-09-06 00:15:5064.23739-21.7128980°35km/h21044m5.5m/s-51.8°C1.2%0hPa0V00:00:0000:00:0000:00:00
DL9RDZ-12026-09-06 00:15:3964.23721-21.7149376°37km/h20985m4.4m/s-51.7°C1.3%0hPa0V00:00:0000:00:0000:00:00
DL9RDZ-12026-09-06 00:15:2964.23700-21.7167268°27km/h20933m5.7m/s-51.6°C1.2%0hPa0V00:00:0000:00:0000:00:00
DL9RDZ-12026-09-06 00:15:1864.23684-21.71829102°29km/h20876m4.7m/s-51.3°C1.2%0hPa0V00:00:0000:00:0000:00:00
DL9RDZ-12026-09-06 00:15:0764.23679-21.7200594°31km/h20822m6.2m/s-51.2°C1.2%0hPa0V00:00:0000:00:0000:00:00
DL9RDZ-12026-09-06 00:14:5764.23672-21.7217989°35km/h20771m5.8m/s-51.1°C1.2%0hPa0V00:00:0000:00:0000:00:00
DL9RDZ-12026-09-06 00:14:4664.23661-21.7240979°35km/h20713m4.2m/s-51.0°C1.2%0hPa0V00:00:0000:00:0000:00:00
DL9RDZ-12026-09-06 00:14:3664.23649-21.7261872°37km/h20662m4.8m/s-51.0°C1.2%0hPa0V00:00:0000:00:0000:00:00
DL9RDZ-12026-09-06 00:14:2564.23637-21.7283481°33km/h20607m4.1m/s-50.9°C1.2%0hPa0V00:00:0000:00:0000:00:00
DL9RDZ-12026-09-06 00:14:1464.23634-21.7304893°38km/h20552m4.0m/s-50.8°C1.2%0hPa0V00:00:0000:00:0000:00:00
DL9RDZ-12026-09-06 00:14:0364.23637-21.7328191°42km/h20494m5.7m/s-51.0°C1.2%0hPa0V00:00:0000:00:0000:00:00
DL9RDZ-12026-09-06 00:13:5264.23613-21.7353076°38km/h20437m4.9m/s-50.9°C1.2%0hPa0V00:00:0000:00:0000:00:00
DL9RDZ-12026-09-06 00:13:4164.23582-21.7376373°33km/h20383m3.6m/s-51.0°C1.2%0hPa0V00:00:0000:00:0000:00:00
DL9RDZ-12026-09-06 00:13:3064.23536-21.7397761°33km/h20328m5.3m/s-50.8°C1.2%0hPa0V00:00:0000:00:0000:00:00
DL9RDZ-12026-09-06 00:13:0964.23451-21.7431871°33km/h20223m4.5m/s-50.5°C1.2%0hPa0V00:00:0000:00:0000:00:00
DL9RDZ-12026-09-06 00:12:5964.23416-21.7450868°31km/h20174m6.0m/s-50.4°C1.2%0hPa0V00:00:0000:00:0000:00:00
DL9RDZ-12026-09-06 00:12:4964.23385-21.7467579°40km/h20121m5.0m/s-50.1°C1.2%0hPa0V00:00:0000:00:0000:00:00
DL9RDZ-12026-09-06 00:12:3864.23346-21.7488478°38km/h20067m4.3m/s-49.9°C1.2%0hPa0V00:00:0000:00:0000:00:00
DL9RDZ-12026-09-06 00:12:2764.23306-21.7511071°38km/h20012m4.0m/s-49.7°C1.2%0hPa0V00:00:0000:00:0000:00:00
DL9RDZ-12026-09-06 00:12:1664.23257-21.7534257°42km/h19955m5.5m/s-49.7°C1.2%0hPa0V00:00:0000:00:0000:00:00
DL9RDZ-12026-09-06 00:12:0564.23186-21.7556554°40km/h19900m4.9m/s-49.6°C1.2%0hPa0V00:00:0000:00:0000:00:00
DL9RDZ-12026-09-06 00:11:5464.23125-21.7578157°42km/h19842m4.4m/s-49.7°C1.2%0hPa0V00:00:0000:00:0000:00:00
DL9RDZ-12026-09-06 00:11:3364.23000-21.7611648°33km/h19734m5.8m/s-49.6°C1.2%0hPa0V00:00:0000:00:0000:00:00
DL9RDZ-12026-09-06 00:11:2364.22943-21.7628852°33km/h19682m5.7m/s-49.9°C1.1%0hPa0V00:00:0000:00:0000:00:00
DL9RDZ-12026-09-06 00:11:1264.22887-21.7645955°35km/h19626m6.3m/s-49.9°C1.2%0hPa0V00:00:0000:00:0000:00:00
DL9RDZ-12026-09-06 00:11:0264.22806-21.7661450°33km/h19572m5.6m/s-49.9°C1.2%0hPa0V00:00:0000:00:0000:00:00
DL9RDZ-12026-09-06 00:10:5164.22748-21.7674943°33km/h19521m3.8m/s-50.1°C1.2%0hPa0V00:00:0000:00:0000:00:00
DL9RDZ-12026-09-06 00:10:4164.22714-21.7688060°29km/h19472m3.3m/s-50.0°C1.2%0hPa0V00:00:0000:00:0000:00:00
DL9RDZ-12026-09-06 00:10:3164.22683-21.7700172°24km/h19425m5.5m/s-50.3°C1.2%0hPa0V00:00:0000:00:0000:00:00
DL9RDZ-12026-09-06 00:10:2064.22662-21.7713467°20km/h19372m5.4m/s-50.2°C1.2%0hPa0V00:00:0000:00:0000:00:00
DL9RDZ-12026-09-06 00:10:1064.22644-21.7728079°26km/h19320m5.5m/s-50.4°C1.2%0hPa0V00:00:0000:00:0000:00:00
DL9RDZ-12026-09-06 00:10:0064.22649-21.7746887°40km/h19269m4.2m/s-50.4°C1.2%0hPa0V00:00:0000:00:0000:00:00
DL9RDZ-12026-09-06 00:09:4964.22655-21.7767598°38km/h19212m4.1m/s-50.2°C1.2%0hPa0V00:00:0000:00:0000:00:00
DL9RDZ-12026-09-06 00:09:3964.22652-21.7785786°31km/h19162m5.0m/s-50.1°C1.2%0hPa0V00:00:0000:00:0000:00:00
DL9RDZ-12026-09-06 00:09:2964.22642-21.7804277°31km/h19110m5.3m/s-50.3°C1.2%0hPa0V00:00:0000:00:0000:00:00
DL9RDZ-12026-09-06 00:09:1864.22605-21.7822258°33km/h19054m5.1m/s-50.1°C1.2%0hPa0V00:00:0000:00:0000:00:00
DL9RDZ-12026-09-06 00:09:0764.22556-21.7836662°27km/h18998m5.8m/s-50.4°C1.2%0hPa0V00:00:0000:00:0000:00:00
DL9RDZ-12026-09-06 00:08:5664.22508-21.7847842°24km/h18941m5.6m/s-50.1°C1.2%0hPa0V00:00:0000:00:0000:00:00
DL9RDZ-12026-09-06 00:08:4564.22453-21.7859554°27km/h18884m5.1m/s-49.8°C1.2%0hPa0V00:00:0000:00:0000:00:00
DL9RDZ-12026-09-06 00:08:3564.22410-21.7872850°33km/h18833m4.5m/s-49.7°C1.1%0hPa0V00:00:0000:00:0000:00:00
DL9RDZ-12026-09-06 00:08:2464.22379-21.7888882°29km/h18778m4.6m/s-49.9°C1.2%0hPa0V00:00:0000:00:0000:00:00
DL9RDZ-12026-09-06 00:08:1364.22362-21.7907884°27km/h18721m4.7m/s-50.3°C1.2%0hPa0V00:00:0000:00:0000:00:00
DL9RDZ-12026-09-06 00:08:0364.22347-21.7923472°22km/h18672m4.7m/s-50.1°C1.2%0hPa0V00:00:0000:00:0000:00:00
DL9RDZ-12026-09-06 00:07:5364.22323-21.7934062°20km/h18621m5.4m/s-49.9°C1.2%0hPa0V00:00:0000:00:0000:00:00
DL9RDZ-12026-09-06 00:07:4264.22301-21.7945154°24km/h18567m4.5m/s-49.8°C1.2%0hPa0V00:00:0000:00:0000:00:00
DL9RDZ-12026-09-06 00:07:3264.22263-21.7956663°24km/h18519m5.3m/s-49.5°C1.2%0hPa0V00:00:0000:00:0000:00:00
DL9RDZ-12026-09-06 00:07:2264.22239-21.7969765°27km/h18471m5.1m/s-49.3°C1.2%0hPa0V00:00:0000:00:0000:00:00
DL9RDZ-12026-09-06 00:07:1164.22226-21.7985692°33km/h18415m5.6m/s-49.3°C1.2%0hPa0V00:00:0000:00:0000:00:00
DL9RDZ-12026-09-06 00:07:0164.22214-21.8001285°26km/h18366m4.8m/s-49.2°C1.2%0hPa0V00:00:0000:00:0000:00:00
DL9RDZ-12026-09-06 00:06:5164.22192-21.8016164°26km/h18318m5.0m/s-49.0°C1.2%0hPa0V00:00:0000:00:0000:00:00
DL9RDZ-12026-09-06 00:06:4064.22172-21.8032980°29km/h18264m5.4m/s-49.0°C1.2%0hPa0V00:00:0000:00:0000:00:00
DL9RDZ-12026-09-06 00:06:3064.22162-21.8049192°31km/h18214m5.0m/s-48.6°C1.1%0hPa0V00:00:0000:00:0000:00:00
DL9RDZ-12026-09-06 00:06:2164.22146-21.8065867°31km/h18165m4.4m/s-48.5°C1.2%0hPa0V00:00:0000:00:0000:00:00
DL9RDZ-12026-09-06 00:06:1164.22124-21.8084575°33km/h18118m4.9m/s-48.4°C1.1%0hPa0V00:00:0000:00:0000:00:00
DL9RDZ-12026-09-06 00:05:5964.22100-21.8104587°35km/h18062m4.6m/s-48.6°C1.2%0hPa0V00:00:0000:00:0000:00:00
DL9RDZ-12026-09-06 00:05:5064.22078-21.8125179°38km/h18015m4.5m/s-48.6°C1.2%0hPa0V00:00:0000:00:0000:00:00
DL9RDZ-12026-09-06 00:05:3864.22060-21.8150884°42km/h17962m4.2m/s-48.9°C1.2%0hPa0V00:00:0000:00:0000:00:00
DL9RDZ-12026-09-06 00:05:2864.22023-21.8174877°37km/h17910m4.8m/s-49.3°C1.2%0hPa0V00:00:0000:00:0000:00:00
DL9RDZ-12026-09-06 00:05:1864.21999-21.8194275°33km/h17863m4.1m/s-49.3°C1.2%0hPa0V00:00:0000:00:0000:00:00
DL9RDZ-12026-09-06 00:05:0764.21964-21.8212859°29km/h17811m5.4m/s-49.3°C1.2%0hPa0V00:00:0000:00:0000:00:00
DL9RDZ-12026-09-06 00:04:5564.21931-21.8227568°27km/h17757m4.2m/s-49.0°C1.2%0hPa0V00:00:0000:00:0000:00:00
DL9RDZ-12026-09-06 00:04:4464.21915-21.8243875°26km/h17705m3.9m/s-48.6°C1.2%0hPa0V00:00:0000:00:0000:00:00
DL9RDZ-12026-09-06 00:04:3464.21905-21.8260487°27km/h17657m3.7m/s-48.5°C1.2%0hPa0V00:00:0000:00:0000:00:00
DL9RDZ-12026-09-06 00:04:2364.21892-21.8280594°38km/h17606m4.2m/s-48.9°C1.2%0hPa0V00:00:0000:00:0000:00:00
DL9RDZ-12026-09-06 00:04:1364.21880-21.8301576°35km/h17560m3.2m/s-48.7°C1.2%0hPa0V00:00:0000:00:0000:00:00
DL9RDZ-12026-09-06 00:04:0464.21871-21.8322392°31km/h17518m4.1m/s-48.9°C1.2%0hPa0V00:00:0000:00:0000:00:00
DL9RDZ-12026-09-06 00:03:5464.21847-21.8340570°38km/h17472m4.2m/s-49.3°C1.2%0hPa0V00:00:0000:00:0000:00:00
DL9RDZ-12026-09-06 00:03:4264.21799-21.8360464°38km/h17424m3.5m/s-49.3°C1.2%0hPa0V00:00:0000:00:0000:00:00
DL9RDZ-12026-09-06 00:03:3264.21765-21.8378470°33km/h17378m3.9m/s-49.6°C1.2%0hPa0V00:00:0000:00:0000:00:00
DL9RDZ-12026-09-06 00:03:2464.21730-21.8402869°35km/h17329m4.5m/s-49.7°C1.3%0hPa0V00:00:0000:00:0000:00:00
DL9RDZ-12026-09-06 00:03:1664.21687-21.8426768°42km/h17279m4.5m/s-49.5°C1.2%0hPa0V00:00:0000:00:0000:00:00
DL9RDZ-12026-09-06 00:03:0864.21645-21.8448967°46km/h17234m3.8m/s-49.3°C1.2%0hPa0V00:00:0000:00:0000:00:00
DL9RDZ-12026-09-06 00:02:5864.21585-21.8472459°42km/h17184m5.1m/s-49.3°C1.2%0hPa0V00:00:0000:00:0000:00:00
DL9RDZ-12026-09-06 00:02:4964.21532-21.8490950°40km/h17141m4.3m/s-49.4°C1.2%0hPa0V00:00:0000:00:0000:00:00
DL9RDZ-12026-09-06 00:02:3264.21463-21.8510853°40km/h17090m3.9m/s-49.3°C1.2%0hPa0V00:00:0000:00:0000:00:00
DL9RDZ-12026-09-06 00:02:1864.21393-21.8531661°42km/h17040m5.0m/s-49.4°C1.2%0hPa0V00:00:0000:00:0000:00:00
DL9RDZ-12026-09-06 00:02:0764.21345-21.8551154°35km/h16994m4.6m/s-49.7°C1.2%0hPa0V00:00:0000:00:0000:00:00
DL9RDZ-12026-09-06 00:01:5964.21296-21.8571360°35km/h16943m3.5m/s-50.1°C1.3%0hPa0V00:00:0000:00:0000:00:00
DL9RDZ-12026-09-06 00:01:5064.21255-21.8586364°26km/h16896m4.3m/s-49.8°C1.3%0hPa0V00:00:0000:00:0000:00:00
DL9RDZ-12026-09-06 00:01:3764.21217-21.8600063°22km/h16843m5.4m/s-49.5°C1.2%0hPa0V00:00:0000:00:0000:00:00
DL9RDZ-12026-09-06 00:01:2864.21182-21.8610848°22km/h16794m4.7m/s-49.7°C1.2%0hPa0V00:00:0000:00:0000:00:00
DL9RDZ-12026-09-06 00:01:1764.21158-21.8620260°13km/h16743m4.0m/s-49.9°C1.3%0hPa0V00:00:0000:00:0000:00:00
DL9RDZ-12026-09-06 00:01:0464.21156-21.8628093°13km/h16690m4.5m/s-49.5°C1.3%0hPa0V00:00:0000:00:0000:00:00
DL9RDZ-12026-09-06 00:00:4664.21126-21.8644546°18km/h16588m4.7m/s-49.0°C1.2%0hPa0V00:00:0000:00:0000:00:00
DL9RDZ-12026-09-06 00:00:3264.21104-21.8654670°26km/h16540m5.6m/s-48.8°C1.2%0hPa0V00:00:0000:00:0000:00:00
DL9RDZ-12026-09-06 00:00:2264.21069-21.8670174°29km/h16485m3.9m/s-48.9°C1.2%0hPa0V00:00:0000:00:0000:00:00
DL9RDZ-12026-09-06 00:00:1164.21037-21.8687367°33km/h16439m4.3m/s-49.1°C1.2%0hPa0V00:00:0000:00:0000:00:00
DL9RDZ-12026-09-06 00:00:0064.20999-21.8705168°27km/h16389m5.1m/s-49.2°C1.3%0hPa0V00:00:0000:00:0000:00:00
DL9RDZ-12026-09-05 23:59:4964.20968-21.8719968°22km/h16336m3.6m/s-49.5°C1.3%0hPa0V00:00:0000:00:0000:00:00
DL9RDZ-12026-09-05 23:59:3964.20943-21.8733972°27km/h16289m4.2m/s-49.4°C1.3%0hPa0V00:00:0000:00:0000:00:00
DL9RDZ-12026-09-05 23:59:2864.20901-21.8750651°31km/h16240m5.2m/s-49.5°C1.3%0hPa0V00:00:0000:00:0000:00:00
DL9RDZ-12026-09-05 23:59:1864.20847-21.8766143°40km/h16193m3.7m/s-49.8°C1.3%0hPa0V00:00:0000:00:0000:00:00
DL9RDZ-12026-09-05 23:59:0664.20788-21.8781355°35km/h16145m3.6m/s-49.6°C1.3%0hPa0V00:00:0000:00:0000:00:00
DL9RDZ-12026-09-05 23:58:5664.20729-21.8794649°31km/h16101m3.3m/s-49.4°C1.3%0hPa0V00:00:0000:00:0000:00:00
DL9RDZ-12026-09-05 23:58:4564.20674-21.8810241°35km/h16053m5.0m/s-49.4°C1.3%0hPa0V00:00:0000:00:0000:00:00
DL9RDZ-12026-09-05 23:58:3464.20621-21.8827552°33km/h16005m4.0m/s-49.3°C1.3%0hPa0V00:00:0000:00:0000:00:00
DL9RDZ-12026-09-05 23:58:2364.20567-21.8844360°29km/h15955m4.8m/s-49.0°C1.3%0hPa0V00:00:0000:00:0000:00:00
DL9RDZ-12026-09-05 23:58:1264.20498-21.8858541°37km/h15907m4.6m/s-48.9°C1.3%0hPa0V00:00:0000:00:0000:00:00
DL9RDZ-12026-09-05 23:58:0164.20438-21.8873555°29km/h15858m5.2m/s-48.8°C1.3%0hPa0V00:00:0000:00:0000:00:00
DL9RDZ-12026-09-05 23:57:5164.20394-21.8886755°29km/h15812m3.7m/s-49.3°C1.3%0hPa0V00:00:0000:00:0000:00:00
DL9RDZ-12026-09-05 23:57:4264.20361-21.8900566°29km/h15769m4.2m/s-49.8°C1.3%0hPa0V00:00:0000:00:0000:00:00
DL9RDZ-12026-09-05 23:57:2864.20329-21.8917964°29km/h15709m4.4m/s-50.1°C1.4%0hPa0V00:00:0000:00:0000:00:00
DL9RDZ-12026-09-05 23:57:1564.20304-21.8937476°35km/h15653m3.6m/s-49.8°C1.4%0hPa0V00:00:0000:00:0000:00:00
DL9RDZ-12026-09-05 23:57:0564.20296-21.8956978°33km/h15605m4.4m/s-49.6°C1.4%0hPa0V00:00:0000:00:0000:00:00
DL9RDZ-12026-09-05 23:56:5564.20284-21.8976289°31km/h15562m3.5m/s-49.4°C1.4%0hPa0V00:00:0000:00:0000:00:00
DL9RDZ-12026-09-05 23:56:4364.20271-21.9002581°40km/h15509m3.4m/s-49.3°C1.3%0hPa0V00:00:0000:00:0000:00:00
DL9RDZ-12026-09-05 23:56:3164.20243-21.9027671°42km/h15461m5.3m/s-49.0°C1.3%0hPa0V00:00:0000:00:0000:00:00
DL9RDZ-12026-09-05 23:56:2164.20208-21.9049465°38km/h15414m4.4m/s-49.2°C1.3%0hPa0V00:00:0000:00:0000:00:00
DL9RDZ-12026-09-05 23:56:1064.20160-21.9072567°38km/h15364m5.4m/s-49.2°C1.3%0hPa0V00:00:0000:00:0000:00:00
DL9RDZ-12026-09-05 23:56:0064.20116-21.9092166°42km/h15317m5.6m/s-49.3°C1.3%0hPa0V00:00:0000:00:0000:00:00
DL9RDZ-12026-09-05 23:55:4964.20076-21.9115165°35km/h15265m4.4m/s-49.8°C1.4%0hPa0V00:00:0000:00:0000:00:00
DL9RDZ-12026-09-05 23:55:3864.20052-21.9137674°35km/h15211m4.3m/s-49.7°C1.4%0hPa0V00:00:0000:00:0000:00:00
DL9RDZ-12026-09-05 23:55:0064.19855-21.9226241°46km/h15020m4.9m/s-50.4°C1.5%0hPa0V00:00:0000:00:0000:00:00
DL9RDZ-12026-09-05 23:54:5064.19761-21.9242638°46km/h14972m4.5m/s-50.4°C1.5%0hPa0V00:00:0000:00:0000:00:00
DL9RDZ-12026-09-05 23:54:4164.19674-21.9258339°44km/h14923m4.2m/s-50.3°C1.5%0hPa0V00:00:0000:00:0000:00:00
DL9RDZ-12026-09-05 23:54:1564.19530-21.9303666°38km/h14792m5.2m/s-49.5°C1.4%0hPa0V00:00:0000:00:0000:00:00
DL9RDZ-12026-09-05 23:54:0364.19496-21.9322561°27km/h14737m3.7m/s-49.2°C1.4%0hPa0V00:00:0000:00:0000:00:00
DL9RDZ-12026-09-05 23:53:5164.19468-21.9340675°27km/h14680m4.3m/s-49.0°C1.4%0hPa0V00:00:0000:00:0000:00:00
DL9RDZ-12026-09-05 23:53:3164.19413-21.9380676°37km/h14571m5.8m/s-48.1°C1.4%0hPa0V00:00:0000:00:0000:00:00
DL9RDZ-12026-09-05 23:53:1964.19389-21.9402871°35km/h14517m3.7m/s-47.7°C1.3%0hPa0V00:00:0000:00:0000:00:00
DL9RDZ-12026-09-05 23:53:0964.19366-21.9422774°35km/h14472m3.8m/s-47.3°C1.3%0hPa0V00:00:0000:00:0000:00:00
DL9RDZ-12026-09-05 23:52:5864.19339-21.9445676°40km/h14420m3.8m/s-47.0°C1.3%0hPa0V00:00:0000:00:0000:00:00
DL9RDZ-12026-09-05 23:52:4864.19310-21.9469574°40km/h14371m3.6m/s-47.2°C1.3%0hPa0V00:00:0000:00:0000:00:00
DL9RDZ-12026-09-05 23:52:3564.19288-21.9494771°42km/h14320m4.6m/s-47.4°C1.3%0hPa0V00:00:0000:00:0000:00:00
DL9RDZ-12026-09-05 23:52:2364.19247-21.9521653°38km/h14264m3.8m/s-48.3°C1.4%0hPa0V00:00:0000:00:0000:00:00
DL9RDZ-12026-09-05 23:52:1464.19205-21.9539972°42km/h14220m3.9m/s-48.7°C1.4%0hPa0V00:00:0000:00:0000:00:00
DL9RDZ-12026-09-05 23:52:0364.19164-21.9563669°40km/h14175m3.8m/s-48.5°C1.4%0hPa0V00:00:0000:00:0000:00:00
DL9RDZ-12026-09-05 23:51:5364.19112-21.9584863°42km/h14133m4.7m/s-48.2°C1.4%0hPa0V00:00:0000:00:0000:00:00
DL9RDZ-12026-09-05 23:51:4264.19054-21.9607554°42km/h14085m4.2m/s-47.8°C1.4%0hPa0V00:00:0000:00:0000:00:00
DL9RDZ-12026-09-05 23:51:3264.19000-21.9628953°40km/h14038m3.9m/s-47.5°C1.4%0hPa0V00:00:0000:00:0000:00:00
DL9RDZ-12026-09-05 23:51:2264.18938-21.9651156°46km/h13993m4.1m/s-47.3°C1.3%0hPa0V00:00:0000:00:0000:00:00
DL9RDZ-12026-09-05 23:51:1164.18853-21.9674950°51km/h13943m3.8m/s-48.0°C1.4%0hPa0V00:00:0000:00:0000:00:00
DL9RDZ-12026-09-05 23:51:0164.18759-21.9692341°47km/h13898m4.5m/s-48.1°C1.4%0hPa0V00:00:0000:00:0000:00:00
DL9RDZ-12026-09-05 23:50:5064.18670-21.9713248°42km/h13851m5.0m/s-48.5°C1.5%0hPa0V00:00:0000:00:0000:00:00
DL9RDZ-12026-09-05 23:50:3964.18598-21.9735754°42km/h13803m4.3m/s-48.5°C1.5%0hPa0V00:00:0000:00:0000:00:00
DL9RDZ-12026-09-05 23:50:2964.18532-21.9754449°47km/h13757m3.9m/s-48.3°C1.4%0hPa0V00:00:0000:00:0000:00:00
DL9RDZ-12026-09-05 23:50:1864.18449-21.9773942°40km/h13709m5.4m/s-48.1°C1.4%0hPa0V00:00:0000:00:0000:00:00
DL9RDZ-12026-09-05 23:50:0864.18378-21.9792944°42km/h13657m5.2m/s-48.3°C1.5%0hPa0V00:00:0000:00:0000:00:00
DL9RDZ-12026-09-05 23:49:5864.18293-21.9810844°46km/h13612m4.1m/s-48.2°C1.5%0hPa0V00:00:0000:00:0000:00:00
DL9RDZ-12026-09-05 23:49:4764.18217-21.9828644°42km/h13568m3.5m/s-49.0°C1.5%0hPa0V00:00:0000:00:0000:00:00
DL9RDZ-12026-09-05 23:49:3764.18161-21.9850365°42km/h13523m4.0m/s-49.3°C1.5%0hPa0V00:00:0000:00:0000:00:00
DL9RDZ-12026-09-05 23:49:2664.18089-21.9871960°44km/h13473m4.9m/s-49.7°C1.6%0hPa0V00:00:0000:00:0000:00:00
DL9RDZ-12026-09-05 23:49:1664.18027-21.9889550°38km/h13428m3.9m/s-49.6°C1.6%0hPa0V00:00:0000:00:0000:00:00
DL9RDZ-12026-09-05 23:49:0564.17966-21.9909060°38km/h13378m4.6m/s-49.5°C1.6%0hPa0V00:00:0000:00:0000:00:00
DL9RDZ-12026-09-05 23:48:5564.17912-21.9928960°47km/h13332m4.1m/s-49.8°C1.6%0hPa0V00:00:0000:00:0000:00:00
DL9RDZ-12026-09-05 23:48:4464.17855-21.9953365°42km/h13282m3.5m/s-50.3°C1.7%0hPa0V00:00:0000:00:0000:00:00
DL9RDZ-12026-09-05 23:48:3464.17805-21.9975861°42km/h13235m5.3m/s-50.2°C1.7%0hPa0V00:00:0000:00:0000:00:00
DL9RDZ-12026-09-05 23:48:2364.17751-22.0000162°40km/h13186m3.7m/s-49.9°C1.7%0hPa0V00:00:0000:00:0000:00:00
DL9RDZ-12026-09-05 23:48:1364.17708-22.0021962°42km/h13140m4.8m/s-49.7°C1.6%0hPa0V00:00:0000:00:0000:00:00
DL9RDZ-12026-09-05 23:48:0264.17667-22.0048675°46km/h13089m4.8m/s-49.8°C1.7%0hPa0V00:00:0000:00:0000:00:00
DL9RDZ-12026-09-05 23:47:5164.17615-22.0076063°47km/h13035m5.9m/s-49.5°C1.6%0hPa0V00:00:0000:00:0000:00:00
DL9RDZ-12026-09-05 23:47:4164.17558-22.0102164°53km/h12985m4.7m/s-49.3°C1.6%0hPa0V00:00:0000:00:0000:00:00
DL9RDZ-12026-09-05 23:47:3064.17489-22.0131255°51km/h12934m3.8m/s-49.4°C1.7%0hPa0V00:00:0000:00:0000:00:00
DL9RDZ-12026-09-05 23:47:1964.17417-22.0158258°51km/h12883m3.9m/s-49.2°C1.7%0hPa0V00:00:0000:00:0000:00:00
DL9RDZ-12026-09-05 23:47:0864.17336-22.0184556°47km/h12835m4.8m/s-49.2°C1.6%0hPa0V00:00:0000:00:0000:00:00
DL9RDZ-12026-09-05 23:46:5764.17261-22.0208656°51km/h12783m5.0m/s-49.0°C1.7%0hPa0V00:00:0000:00:0000:00:00
DL9RDZ-12026-09-05 23:46:4664.17188-22.0234061°47km/h12735m4.0m/s-48.9°C1.7%0hPa0V00:00:0000:00:0000:00:00
DL9RDZ-12026-09-05 23:46:3564.17109-22.0260856°51km/h12685m3.7m/s-48.8°C1.7%0hPa0V00:00:0000:00:0000:00:00
DL9RDZ-12026-09-05 23:46:2564.17037-22.0284953°51km/h12642m4.1m/s-48.7°C1.7%0hPa0V00:00:0000:00:0000:00:00
DL9RDZ-12026-09-05 23:46:1564.16961-22.0307554°49km/h12598m4.3m/s-48.4°C1.7%0hPa0V00:00:0000:00:0000:00:00
DL9RDZ-12026-09-05 23:46:0564.16888-22.0332054°53km/h12556m4.0m/s-48.5°C1.7%0hPa0V00:00:0000:00:0000:00:00
DL9RDZ-12026-09-05 23:45:5564.16812-22.0358561°57km/h12512m3.5m/s-48.8°C1.8%0hPa0V00:00:0000:00:0000:00:00
DL9RDZ-12026-09-05 23:45:4464.16725-22.0388458°55km/h12465m3.5m/s-49.0°C1.8%0hPa0V00:00:0000:00:0000:00:00
DL9RDZ-12026-09-05 23:45:3364.16633-22.0418559°55km/h12420m3.1m/s-49.4°C1.9%0hPa0V00:00:0000:00:0000:00:00
DL9RDZ-12026-09-05 23:45:2264.16560-22.0446955°42km/h12372m3.5m/s-49.4°C1.8%0hPa0V00:00:0000:00:0000:00:00
DL9RDZ-12026-09-05 23:45:1264.16497-22.0468457°44km/h12329m3.7m/s-49.2°C1.9%0hPa0V00:00:0000:00:0000:00:00
DL9RDZ-12026-09-05 23:45:0264.16434-22.0493063°46km/h12281m5.4m/s-48.9°C1.8%0hPa0V00:00:0000:00:0000:00:00
DL9RDZ-12026-09-05 23:44:5064.16376-22.0517465°42km/h12235m3.5m/s-48.7°C1.8%0hPa0V00:00:0000:00:0000:00:00
DL9RDZ-12026-09-05 23:44:3964.16322-22.0543366°47km/h12190m3.1m/s-48.5°C1.8%0hPa0V00:00:0000:00:0000:00:00
DL9RDZ-12026-09-05 23:44:2964.16282-22.0567873°42km/h12148m4.5m/s-48.6°C1.9%0hPa0V00:00:0000:00:0000:00:00
DL9RDZ-12026-09-05 23:44:1864.16245-22.0596680°49km/h12100m5.5m/s-48.3°C1.9%0hPa0V00:00:0000:00:0000:00:00
DL9RDZ-12026-09-05 23:44:0864.16199-22.0626069°58km/h12048m3.6m/s-48.0°C2.0%0hPa0V00:00:0000:00:0000:00:00
DL9RDZ-12026-09-05 23:43:5764.16145-22.0657061°53km/h11999m4.6m/s-48.7°C2.3%0hPa0V00:00:0000:00:0000:00:00
DL9RDZ-12026-09-05 23:43:4664.16058-22.0691660°66km/h11947m3.5m/s-48.7°C2.5%0hPa0V00:00:0000:00:0000:00:00
DL9RDZ-12026-09-05 23:43:3664.15972-22.0724964°69km/h11904m4.0m/s-48.9°C2.7%0hPa0V00:00:0000:00:0000:00:00
DL9RDZ-12026-09-05 23:43:2564.15876-22.0766162°69km/h11854m5.6m/s-48.8°C2.8%0hPa0V00:00:0000:00:0000:00:00
DL9RDZ-12026-09-05 23:43:1464.15773-22.0806557°69km/h11808m5.2m/s-49.8°C3.1%0hPa0V00:00:0000:00:0000:00:00
DL9RDZ-12026-09-05 23:43:0364.15650-22.0845957°77km/h11761m3.7m/s-50.0°C3.2%0hPa0V00:00:0000:00:0000:00:00
DL9RDZ-12026-09-05 23:42:5364.15540-22.0880855°78km/h11719m4.5m/s-49.9°C3.4%0hPa0V00:00:0000:00:0000:00:00
DL9RDZ-12026-09-05 23:42:4364.15427-22.0916054°73km/h11676m4.2m/s-50.2°C3.9%0hPa0V00:00:0000:00:0000:00:00
DL9RDZ-12026-09-05 23:42:3264.15301-22.0954150°73km/h11629m4.4m/s-50.8°C4.9%0hPa0V00:00:0000:00:0000:00:00
DL9RDZ-12026-09-05 23:42:2064.15153-22.0993752°82km/h11579m4.0m/s-52.3°C6.7%0hPa0V00:00:0000:00:0000:00:00
DL9RDZ-12026-09-05 23:42:0364.14934-22.1050553°78km/h11506m4.4m/s-52.4°C8.2%0hPa0V00:00:0000:00:0000:00:00
DL9RDZ-12026-09-05 23:41:5164.14800-22.1094556°78km/h11452m4.1m/s-52.2°C8.8%0hPa0V00:00:0000:00:0000:00:00
DL9RDZ-12026-09-05 23:41:4064.14670-22.1139658°88km/h11401m3.6m/s-51.8°C9.2%0hPa0V00:00:0000:00:0000:00:00
DL9RDZ-12026-09-05 23:41:2964.14532-22.1185554°89km/h11351m4.5m/s-51.5°C9.7%0hPa0V00:00:0000:00:0000:00:00
DL9RDZ-12026-09-05 23:41:1864.14388-22.1232655°93km/h11302m3.4m/s-51.6°C10.8%0hPa0V00:00:0000:00:0000:00:00
DL9RDZ-12026-09-05 23:41:0764.14227-22.1280751°100km/h11252m4.2m/s-52.1°C11.9%0hPa0V00:00:0000:00:0000:00:00
DL9RDZ-12026-09-05 23:40:5664.14045-22.1329250°102km/h11205m4.4m/s-53.1°C13.8%0hPa0V00:00:0000:00:0000:00:00
DL9RDZ-12026-09-05 23:40:4664.13873-22.1371950°100km/h11165m4.0m/s-53.3°C15.2%0hPa0V00:00:0000:00:0000:00:00
DL9RDZ-12026-09-05 23:40:3664.13707-22.1414550°99km/h11121m4.7m/s-53.4°C16.3%0hPa0V00:00:0000:00:0000:00:00
DL9RDZ-12026-09-05 23:40:2764.13536-22.1456648°100km/h11081m3.3m/s-53.3°C16.8%0hPa0V00:00:0000:00:0000:00:00
DL9RDZ-12026-09-05 23:40:1564.13348-22.1506749°102km/h11036m4.3m/s-53.5°C18.4%0hPa0V00:00:0000:00:0000:00:00
DL9RDZ-12026-09-05 23:40:0564.13166-22.1557951°104km/h10991m3.2m/s-53.9°C19.8%0hPa0V00:00:0000:00:0000:00:00
DL9RDZ-12026-09-05 23:39:5364.12983-22.1608350°99km/h10948m4.6m/s-53.7°C21.0%0hPa0V00:00:0000:00:0000:00:00
DL9RDZ-12026-09-05 23:39:4364.12814-22.1650451°99km/h10906m3.1m/s-53.6°C22.0%0hPa0V00:00:0000:00:0000:00:00
DL9RDZ-12026-09-05 23:39:3064.12601-22.1705450°97km/h10853m4.0m/s-53.8°C24.9%0hPa0V00:00:0000:00:0000:00:00
DL9RDZ-12026-09-05 23:39:2264.12425-22.1748149°91km/h10808m4.0m/s-54.3°C28.0%0hPa0V00:00:0000:00:0000:00:00
DL9RDZ-12026-09-05 23:38:5764.12099-22.1844157°100km/h10708m3.9m/s-54.6°C33.7%0hPa0V00:00:0000:00:0000:00:00
DL9RDZ-12026-09-05 23:38:4764.11957-22.1890355°95km/h10668m4.5m/s-54.6°C34.4%0hPa0V00:00:0000:00:0000:00:00
DL9RDZ-12026-09-05 23:38:3664.11806-22.1940359°93km/h10621m3.0m/s-54.4°C36.5%0hPa0V00:00:0000:00:0000:00:00
DL9RDZ-12026-09-05 23:38:2664.11677-22.1987661°99km/h10577m3.4m/s-54.3°C41.1%0hPa0V00:00:0000:00:0000:00:00
DL9RDZ-12026-09-05 23:38:1564.11529-22.2042759°102km/h10530m3.2m/s-54.3°C50.7%0hPa0V00:00:0000:00:0000:00:00
DL9RDZ-12026-09-05 23:38:0464.11372-22.2100558°111km/h10484m3.0m/s-54.1°C58.3%0hPa0V00:00:0000:00:0000:00:00
DL9RDZ-12026-09-05 23:37:5464.11221-22.2156059°115km/h10443m4.3m/s-54.0°C65.5%0hPa0V00:00:0000:00:0000:00:00
DL9RDZ-12026-09-05 23:37:4464.11070-22.2210857°115km/h10403m4.2m/s-53.9°C70.0%0hPa0V00:00:0000:00:0000:00:00
DL9RDZ-12026-09-05 23:37:3464.10914-22.2267158°117km/h10362m4.7m/s-53.7°C73.3%0hPa0V00:00:0000:00:0000:00:00
DL9RDZ-12026-09-05 23:37:1964.10670-22.2350657°117km/h10299m4.8m/s-53.5°C77.1%0hPa0V00:00:0000:00:0000:00:00
DL9RDZ-12026-09-05 23:37:0864.10484-22.2411957°115km/h10253m3.2m/s-53.1°C75.0%0hPa0V00:00:0000:00:0000:00:00
DL9RDZ-12026-09-05 23:36:5864.10323-22.2469058°117km/h10214m3.6m/s-52.8°C74.0%0hPa0V00:00:0000:00:0000:00:00
DL9RDZ-12026-09-05 23:36:4864.10149-22.2524856°119km/h10173m4.5m/s-52.6°C66.3%0hPa0V00:00:0000:00:0000:00:00
DL9RDZ-12026-09-05 23:36:3764.09958-22.2585856°117km/h10127m2.8m/s-52.3°C59.1%0hPa0V00:00:0000:00:0000:00:00
DL9RDZ-12026-09-05 23:36:2864.09787-22.2639554°117km/h10086m2.8m/s-51.9°C55.5%0hPa0V00:00:0000:00:0000:00:00
DL9RDZ-12026-09-05 23:36:1764.09617-22.2693655°113km/h10045m4.8m/s-51.7°C53.4%0hPa0V00:00:0000:00:0000:00:00
DL9RDZ-12026-09-05 23:36:0664.09425-22.2752355°115km/h10002m3.9m/s-51.5°C53.6%0hPa0V00:00:0000:00:0000:00:00
DL9RDZ-12026-09-05 23:35:4764.09109-22.2852455°113km/h9922m3.7m/s-51.3°C57.6%0hPa0V00:00:0000:00:0000:00:00
DL9RDZ-12026-09-05 23:35:3664.08925-22.2909354°113km/h9879m4.1m/s-50.9°C55.9%0hPa0V00:00:0000:00:0000:00:00
DL9RDZ-12026-09-05 23:35:2564.08746-22.2967755°113km/h9837m3.3m/s-50.7°C54.7%0hPa0V00:00:0000:00:0000:00:00
DL9RDZ-12026-09-05 23:35:1464.08562-22.3025055°108km/h9794m4.5m/s-50.4°C52.0%0hPa0V00:00:0000:00:0000:00:00
DL9RDZ-12026-09-05 23:35:0364.08380-22.3081254°108km/h9748m4.7m/s-50.0°C53.6%0hPa0V00:00:0000:00:0000:00:00
DL9RDZ-12026-09-05 23:34:5364.08218-22.3132254°111km/h9709m4.0m/s-49.7°C50.7%0hPa0V00:00:0000:00:0000:00:00
DL9RDZ-12026-09-05 23:34:4264.08043-22.3188155°108km/h9666m2.7m/s-49.4°C46.0%0hPa0V00:00:0000:00:0000:00:00
DL9RDZ-12026-09-05 23:34:3164.07867-22.3242954°108km/h9624m3.2m/s-49.0°C43.1%0hPa0V00:00:0000:00:0000:00:00
DL9RDZ-12026-09-05 23:34:2164.07706-22.3292755°108km/h9583m4.4m/s-49.0°C45.6%0hPa0V00:00:0000:00:0000:00:00
DL9RDZ-12026-09-05 23:34:1064.07519-22.3349254°100km/h9536m3.9m/s-48.6°C44.3%0hPa0V00:00:0000:00:0000:00:00
DL9RDZ-12026-09-05 23:34:0064.07360-22.3397056°106km/h9480m7.0m/s-48.0°C41.7%0hPa0V00:00:0000:00:0000:00:00
DL9RDZ-12026-09-05 23:33:5064.07204-22.3443451°104km/h9429m4.4m/s-47.6°C46.5%0hPa0V00:00:0000:00:0000:00:00
DL9RDZ-12026-09-05 23:33:4064.07035-22.3495254°102km/h9377m7.6m/s-47.6°C60.4%0hPa0V00:00:0000:00:0000:00:00
DL9RDZ-12026-09-05 23:33:1864.06730-22.3601757°102km/h9271m4.1m/s-47.5°C72.5%0hPa0V00:00:0000:00:0000:00:00
DL9RDZ-12026-09-05 23:33:0464.06534-22.3666556°93km/h9213m4.5m/s-47.1°C75.0%0hPa0V00:00:0000:00:0000:00:00
DL9RDZ-12026-09-05 23:32:5464.06384-22.3717156°97km/h9169m4.6m/s-46.8°C73.0%0hPa0V00:00:0000:00:0000:00:00
DL9RDZ-12026-09-05 23:32:4264.06233-22.3767557°97km/h9124m3.4m/s-46.4°C74.8%0hPa0V00:00:0000:00:0000:00:00
DL9RDZ-12026-09-05 23:32:3164.06084-22.3819356°99km/h9081m4.3m/s-46.0°C76.5%0hPa0V00:00:0000:00:0000:00:00
DL9RDZ-12026-09-05 23:32:2064.05936-22.3869460°95km/h9038m3.7m/s-45.6°C77.0%0hPa0V00:00:0000:00:0000:00:00
DL9RDZ-12026-09-05 23:32:0964.05789-22.3921059°95km/h8993m3.7m/s-45.2°C75.0%0hPa0V00:00:0000:00:0000:00:00
DL9RDZ-12026-09-05 23:31:3964.05395-22.4060357°97km/h8872m4.0m/s-44.1°C70.1%0hPa0V00:00:0000:00:0000:00:00
DL9RDZ-12026-09-05 23:31:2964.05264-22.4106559°95km/h8830m3.3m/s-43.8°C72.2%0hPa0V00:00:0000:00:0000:00:00
DL9RDZ-12026-09-05 23:31:0864.04984-22.4202157°91km/h8744m4.0m/s-43.2°C78.6%0hPa0V00:00:0000:00:0000:00:00
DL9RDZ-12026-09-05 23:30:5864.04857-22.4246757°95km/h8703m4.5m/s-42.8°C77.3%0hPa0V00:00:0000:00:0000:00:00
DL9RDZ-12026-09-05 23:30:4764.04717-22.4294756°91km/h8656m3.6m/s-42.4°C73.8%0hPa0V00:00:0000:00:0000:00:00
DL9RDZ-12026-09-05 23:30:3664.04577-22.4342757°89km/h8609m4.4m/s-42.0°C73.4%0hPa0V00:00:0000:00:0000:00:00
DL9RDZ-12026-09-05 23:30:2564.04436-22.4389659°89km/h8564m4.6m/s-41.6°C73.2%0hPa0V00:00:0000:00:0000:00:00
DL9RDZ-12026-09-05 23:30:1764.04313-22.4433458°89km/h8522m2.6m/s-41.3°C72.7%0hPa0V00:00:0000:00:0000:00:00
DL9RDZ-12026-09-05 23:30:0464.04175-22.4480356°89km/h8478m3.5m/s-40.9°C71.9%0hPa0V00:00:0000:00:0000:00:00
DL9RDZ-12026-09-05 23:29:5464.04045-22.4521955°88km/h8435m4.7m/s-40.5°C76.7%0hPa0V00:00:0000:00:0000:00:00
DL9RDZ-12026-09-05 23:29:4464.03919-22.4564058°91km/h8393m4.6m/s-40.2°C73.4%0hPa0V00:00:0000:00:0000:00:00
DL9RDZ-12026-09-05 23:29:3364.03782-22.4610755°89km/h8346m4.6m/s-39.9°C74.2%0hPa0V00:00:0000:00:0000:00:00
DL9RDZ-12026-09-05 23:29:2264.03644-22.4656655°88km/h8298m4.2m/s-39.4°C73.3%0hPa0V00:00:0000:00:0000:00:00
DL9RDZ-12026-09-05 23:29:1164.03505-22.4701356°88km/h8251m4.2m/s-39.1°C72.8%0hPa0V00:00:0000:00:0000:00:00
DL9RDZ-12026-09-05 23:29:0164.03378-22.4742656°89km/h8205m4.2m/s-38.7°C72.7%0hPa0V00:00:0000:00:0000:00:00
DL9RDZ-12026-09-05 23:28:5064.03230-22.4788954°89km/h8158m4.5m/s-38.4°C69.1%0hPa0V00:00:0000:00:0000:00:00
DL9RDZ-12026-09-05 23:28:4064.03101-22.4829757°89km/h8109m5.6m/s-37.9°C66.8%0hPa0V00:00:0000:00:0000:00:00
DL9RDZ-12026-09-05 23:28:2964.02969-22.4870457°84km/h8043m6.7m/s-37.4°C61.8%0hPa0V00:00:0000:00:0000:00:00
DL9RDZ-12026-09-05 23:28:1864.02853-22.4915058°84km/h7973m7.0m/s-36.9°C49.8%0hPa0V00:00:0000:00:0000:00:00
DL9RDZ-12026-09-05 23:28:0764.02738-22.4958060°78km/h7924m5.3m/s-36.7°C56.5%0hPa0V00:00:0000:00:0000:00:00
DL9RDZ-12026-09-05 23:27:5764.02637-22.4996758°78km/h7884m2.9m/s-36.3°C51.1%0hPa0V00:00:0000:00:0000:00:00
DL9RDZ-12026-09-05 23:27:4764.02535-22.5035158°75km/h7843m4.0m/s-36.1°C58.4%0hPa0V00:00:0000:00:0000:00:00
DL9RDZ-12026-09-05 23:27:3664.02422-22.5076761°77km/h7794m4.5m/s-35.9°C55.2%0hPa0V00:00:0000:00:0000:00:00
DL9RDZ-12026-09-05 23:27:2564.02327-22.5119162°73km/h7748m3.6m/s-35.6°C39.1%0hPa0V00:00:0000:00:0000:00:00
DL9RDZ-12026-09-05 23:27:1564.02236-22.5154359°69km/h7707m4.0m/s-35.3°C28.6%0hPa0V00:00:0000:00:0000:00:00
DL9RDZ-12026-09-05 23:27:0464.02130-22.5193360°68km/h7655m4.2m/s-35.0°C24.2%0hPa0V00:00:0000:00:0000:00:00
DL9RDZ-12026-09-05 23:26:5464.02038-22.5226057°69km/h7608m4.9m/s-34.8°C27.3%0hPa0V00:00:0000:00:0000:00:00
DL9RDZ-12026-09-05 23:26:4464.01948-22.5258260°66km/h7564m2.9m/s-34.5°C22.8%0hPa0V00:00:0000:00:0000:00:00
DL9RDZ-12026-09-05 23:26:3364.01851-22.5290056°60km/h7508m4.0m/s-34.2°C18.2%0hPa0V00:00:0000:00:0000:00:00
DL9RDZ-12026-09-05 23:26:2264.01756-22.5322064°62km/h7450m4.6m/s-33.9°C15.7%0hPa0V00:00:0000:00:0000:00:00
DL9RDZ-12026-09-05 23:26:1164.01678-22.5356564°62km/h7392m4.5m/s-33.5°C15.8%0hPa0V00:00:0000:00:0000:00:00
DL9RDZ-12026-09-05 23:26:0064.01597-22.5388563°60km/h7341m5.2m/s-33.1°C14.7%0hPa0V00:00:0000:00:0000:00:00
DL9RDZ-12026-09-05 23:25:4964.01527-22.5420666°55km/h7293m3.1m/s-32.7°C13.8%0hPa0V00:00:0000:00:0000:00:00
DL9RDZ-12026-09-05 23:25:3964.01469-22.5449369°53km/h7251m4.3m/s-32.5°C11.8%0hPa0V00:00:0000:00:0000:00:00
DL9RDZ-12026-09-05 23:25:2864.01414-22.5480766°55km/h7207m5.2m/s-32.4°C11.7%0hPa0V00:00:0000:00:0000:00:00
DL9RDZ-12026-09-05 23:25:0764.01292-22.5533257°46km/h7117m3.8m/s-31.9°C10.6%0hPa0V00:00:0000:00:0000:00:00
DL9RDZ-12026-09-05 23:24:5664.01221-22.5556059°46km/h7075m3.5m/s-31.6°C10.9%0hPa0V00:00:0000:00:0000:00:00
DL9RDZ-12026-09-05 23:24:4664.01156-22.5575946°44km/h7035m4.1m/s-31.4°C11.3%0hPa0V00:00:0000:00:0000:00:00
DL9RDZ-12026-09-05 23:24:3564.01070-22.5599049°46km/h6993m6.1m/s-31.1°C11.1%0hPa0V00:00:0000:00:0000:00:00
DL9RDZ-12026-09-05 23:24:2564.00993-22.5618648°49km/h6942m3.6m/s-30.9°C11.3%0hPa0V00:00:0000:00:0000:00:00
DL9RDZ-12026-09-05 23:24:1464.00908-22.5640248°44km/h6888m2.8m/s-30.7°C12.6%0hPa0V00:00:0000:00:0000:00:00
DL9RDZ-12026-09-05 23:24:0464.00829-22.5659449°46km/h6831m4.1m/s-30.6°C12.2%0hPa0V00:00:0000:00:0000:00:00
DL9RDZ-12026-09-05 23:23:5464.00752-22.5678246°44km/h6790m2.3m/s-30.6°C15.0%0hPa0V00:00:0000:00:0000:00:00
DL9RDZ-12026-09-05 23:23:4364.00667-22.5698653°42km/h6748m3.7m/s-30.4°C15.4%0hPa0V00:00:0000:00:0000:00:00
DL9RDZ-12026-09-05 23:23:3364.00594-22.5716850°44km/h6708m2.1m/s-30.3°C15.9%0hPa0V00:00:0000:00:0000:00:00
DL9RDZ-12026-09-05 23:23:2364.00513-22.5734948°40km/h6665m4.5m/s-30.0°C16.8%0hPa0V00:00:0000:00:0000:00:00
DL9RDZ-12026-09-05 23:23:1264.00448-22.5750341°35km/h6622m5.0m/s-29.7°C16.9%0hPa0V00:00:0000:00:0000:00:00
DL9RDZ-12026-09-05 23:23:0164.00367-22.5767946°37km/h6563m4.6m/s-29.4°C16.2%0hPa0V00:00:0000:00:0000:00:00
DL9RDZ-12026-09-05 23:22:5164.00286-22.5782947°37km/h6518m3.9m/s-29.1°C16.7%0hPa0V00:00:0000:00:0000:00:00
DL9RDZ-12026-09-05 23:22:3864.00191-22.5802139°35km/h6456m4.9m/s-28.8°C16.4%0hPa0V00:00:0000:00:0000:00:00
DL9RDZ-12026-09-05 23:22:2864.00127-22.5816736°38km/h6413m5.7m/s-28.4°C16.0%0hPa0V00:00:0000:00:0000:00:00
DL9RDZ-12026-09-05 23:22:1764.00048-22.5830537°29km/h6358m3.6m/s-28.2°C17.4%0hPa0V00:00:0000:00:0000:00:00
DL9RDZ-12026-09-05 23:22:0663.99990-22.5842044°20km/h6305m4.6m/s-27.8°C17.6%0hPa0V00:00:0000:00:0000:00:00
DL9RDZ-12026-09-05 23:21:5563.99934-22.5853038°24km/h6254m4.5m/s-27.5°C17.9%0hPa0V00:00:0000:00:0000:00:00
DL9RDZ-12026-09-05 23:20:3663.99537-22.5914219°22km/h5888m3.9m/s-24.8°C11.7%0hPa0V00:00:0000:00:0000:00:00
DL9RDZ-12026-09-05 23:20:2463.99486-22.5922937°26km/h5834m5.8m/s-24.4°C10.8%0hPa0V00:00:0000:00:0000:00:00
DL9RDZ-12026-09-05 23:20:1363.99429-22.5929830°22km/h5783m6.6m/s-24.0°C10.9%0hPa0V00:00:0000:00:0000:00:00
DL9RDZ-12026-09-05 23:20:0363.99395-22.5935532°18km/h5735m4.8m/s-23.7°C10.3%0hPa0V00:00:0000:00:0000:00:00
DL9RDZ-12026-09-05 23:19:5363.99363-22.5938516km/h5677m3.8m/s-23.3°C10.5%0hPa0V00:00:0000:00:0000:00:00
DL9RDZ-12026-09-05 23:19:4363.99338-22.5943457°13km/h5627m5.8m/s-22.9°C10.5%0hPa0V00:00:0000:00:0000:00:00
DL9RDZ-12026-09-05 23:19:3263.99305-22.5946931°13km/h5570m7.6m/s-22.4°C9.6%0hPa0V00:00:0000:00:0000:00:00
DL9RDZ-12026-09-05 23:19:2163.99279-22.5951054°9km/h5508m5.7m/s-21.9°C8.6%0hPa0V00:00:0000:00:0000:00:00
DL9RDZ-12026-09-05 23:19:1063.99253-22.5956146°18km/h5448m4.4m/s-21.4°C8.6%0hPa0V00:00:0000:00:0000:00:00
DL9RDZ-12026-09-05 23:19:0063.99230-22.5962256°7km/h5398m5.5m/s-20.9°C8.3%0hPa0V00:00:0000:00:0000:00:00
DL9RDZ-12026-09-05 23:18:4963.99208-22.5966033°13km/h5342m5.7m/s-20.4°C8.2%0hPa0V00:00:0000:00:0000:00:00
DL9RDZ-12026-09-05 23:18:3963.99181-22.59682353°9km/h5289m5.7m/s-20.1°C8.1%0hPa0V00:00:0000:00:0000:00:00
DL9RDZ-12026-09-05 23:18:2863.99158-22.5968658°11km/h5231m5.2m/s-19.6°C8.6%0hPa0V00:00:0000:00:0000:00:00
DL9RDZ-12026-09-05 23:18:1763.99141-22.5971955°7km/h5176m5.2m/s-19.1°C7.2%0hPa0V00:00:0000:00:0000:00:00
DL9RDZ-12026-09-05 23:18:0763.99122-22.5974644°11km/h5123m6.1m/s-18.8°C6.9%0hPa0V00:00:0000:00:0000:00:00
DL9RDZ-12026-09-05 23:17:5663.99097-22.5976735°15km/h5063m4.6m/s-18.4°C7.3%0hPa0V00:00:0000:00:0000:00:00
DL9RDZ-12026-09-05 23:17:4663.99069-22.5978211km/h5011m6.5m/s-18.0°C7.2%0hPa0V00:00:0000:00:0000:00:00
DL9RDZ-12026-09-05 23:17:3563.99047-22.598095km/h4952m6.2m/s-17.6°C7.0%0hPa0V00:00:0000:00:0000:00:00
DL9RDZ-12026-09-05 23:17:2563.99022-22.59805346°9km/h4896m7.8m/s-17.2°C6.6%0hPa0V00:00:0000:00:0000:00:00
DL9RDZ-12026-09-05 23:17:2163.98996-22.5981040°7km/h4841m3.7m/s-16.8°C6.5%0hPa0V00:00:0000:00:0000:00:00
DL9RDZ-12026-09-05 23:17:0663.98977-22.5984713km/h4791m5.5m/s-16.3°C6.2%0hPa0V00:00:0000:00:0000:00:00
DL9RDZ-12026-09-05 23:16:5363.98952-22.5986229°15km/h4737m4.8m/s-16.0°C6.0%0hPa0V00:00:0000:00:0000:00:00
DL9RDZ-12026-09-05 23:16:4263.98932-22.5989022°9km/h4681m4.4m/s-15.5°C5.5%0hPa0V00:00:0000:00:0000:00:00
DL9RDZ-12026-09-05 23:16:3263.98911-22.5992015°11km/h4631m4.2m/s-15.1°C4.5%0hPa0V00:00:0000:00:0000:00:00
DL9RDZ-12026-09-05 23:16:2163.98885-22.5994233°13km/h4572m4.7m/s-14.9°C3.9%0hPa0V00:00:0000:00:0000:00:00
DL9RDZ-12026-09-05 23:16:1063.98875-22.5996586°5km/h4522m4.9m/s-14.8°C4.1%0hPa0V00:00:0000:00:0000:00:00
DL9RDZ-12026-09-05 23:15:5963.98863-22.6001445°7km/h4462m5.4m/s-14.6°C4.3%0hPa0V00:00:0000:00:0000:00:00
DL9RDZ-12026-09-05 23:15:4863.98846-22.6007941°7km/h4389m5.5m/s-14.1°C4.3%0hPa0V00:00:0000:00:0000:00:00
DL9RDZ-12026-09-05 23:15:3863.98836-22.6012360°9km/h4343m5.0m/s-13.8°C4.4%0hPa0V00:00:0000:00:0000:00:00
DL9RDZ-12026-09-05 23:15:2763.98827-22.6016951°7km/h4283m6.2m/s-13.5°C4.2%0hPa0V00:00:0000:00:0000:00:00
DL9RDZ-12026-09-05 23:15:1663.98817-22.602059km/h4225m4.5m/s-13.1°C4.4%0hPa0V00:00:0000:00:0000:00:00
DL9RDZ-12026-09-05 23:15:0663.98808-22.6022979°9km/h4162m6.1m/s-13.0°C5.0%0hPa0V00:00:0000:00:0000:00:00
DL9RDZ-12026-09-05 23:14:5463.98794-22.60265360°11km/h4110m2.8m/s-12.8°C4.9%0hPa0V00:00:0000:00:0000:00:00
DL9RDZ-12026-09-05 23:14:4363.98772-22.6027211km/h4049m6.8m/s-12.5°C4.6%0hPa0V00:00:0000:00:0000:00:00
DL9RDZ-12026-09-05 23:14:3363.98743-22.6029511°11km/h3997m6.3m/s-12.1°C5.0%0hPa0V00:00:0000:00:0000:00:00
DL9RDZ-12026-09-05 23:14:2363.98717-22.60283347°15km/h3941m4.7m/s-11.8°C4.8%0hPa0V00:00:0000:00:0000:00:00
DL9RDZ-12026-09-05 23:14:1363.98690-22.60291356°13km/h3891m5.1m/s-11.4°C5.0%0hPa0V00:00:0000:00:0000:00:00
DL9RDZ-12026-09-05 23:14:0263.98659-22.60293345°9km/h3844m3.9m/s-11.1°C5.4%0hPa0V00:00:0000:00:0000:00:00
DL9RDZ-12026-09-05 23:13:5263.98641-22.60280355°18km/h3794m4.3m/s-10.7°C4.4%0hPa0V00:00:0000:00:0000:00:00
DL9RDZ-12026-09-05 23:13:4263.98615-22.6027010°9km/h3742m3.3m/s-10.5°C4.6%0hPa0V00:00:0000:00:0000:00:00
DL9RDZ-12026-09-05 23:13:3163.98597-22.60248348°11km/h3689m5.2m/s-10.3°C5.1%0hPa0V00:00:0000:00:0000:00:00
DL9RDZ-12026-09-05 23:13:2063.98575-22.6025119°11km/h3631m5.1m/s-10.1°C5.7%0hPa0V00:00:0000:00:0000:00:00
DL9RDZ-12026-09-05 23:13:1163.98553-22.6025730°4km/h3565m7.5m/s-10.0°C9.1%0hPa0V00:00:0000:00:0000:00:00
DL9RDZ-12026-09-05 23:12:5963.98540-22.6030086°11km/h3516m4.4m/s-9.7°C8.5%0hPa0V00:00:0000:00:0000:00:00
DL9RDZ-12026-09-05 23:12:4863.98510-22.6036030°16km/h3469m2.1m/s-9.5°C8.6%0hPa0V00:00:0000:00:0000:00:00
DL9RDZ-12026-09-05 23:12:3763.98494-22.6041456°16km/h3420m4.2m/s-9.3°C8.3%0hPa0V00:00:0000:00:0000:00:00
DL9RDZ-12026-09-05 23:12:2763.98477-22.6048564°13km/h3369m4.2m/s-9.3°C10.4%0hPa0V00:00:0000:00:0000:00:00
DL9RDZ-12026-09-05 23:12:1763.98448-22.6051978°11km/h3320m6.7m/s-9.0°C10.7%0hPa0V00:00:0000:00:0000:00:00
DL9RDZ-12026-09-05 23:12:0663.98427-22.6054243°11km/h3257m5.9m/s-8.5°C10.5%0hPa0V00:00:0000:00:0000:00:00
DL9RDZ-12026-09-05 23:11:5563.98428-22.605740km/h3201m5.7m/s-8.1°C10.1%0hPa0V00:00:0000:00:0000:00:00
DL9RDZ-12026-09-05 23:11:4563.98411-22.6060534°13km/h3147m4.7m/s-7.8°C10.7%0hPa0V00:00:0000:00:0000:00:00
DL9RDZ-12026-09-05 23:11:3463.98385-22.6066244°15km/h3097m3.4m/s-7.4°C10.8%0hPa0V00:00:0000:00:0000:00:00
DL9RDZ-12026-09-05 23:11:2363.98353-22.6073050°11km/h3041m3.3m/s-7.3°C9.7%0hPa0V00:00:0000:00:0000:00:00
DL9RDZ-12026-09-05 23:11:1263.98342-22.6077954°9km/h2994m5.5m/s-7.1°C9.4%0hPa0V00:00:0000:00:0000:00:00
DL9RDZ-12026-09-05 23:11:0163.98310-22.6082521°11km/h2946m4.3m/s-6.7°C9.7%0hPa0V00:00:0000:00:0000:00:00
DL9RDZ-12026-09-05 23:10:5163.98290-22.6087479°9km/h2904m4.3m/s-6.5°C9.7%0hPa0V00:00:0000:00:0000:00:00
DL9RDZ-12026-09-05 23:10:4063.98272-22.6090775°9km/h2855m3.5m/s-6.2°C10.0%0hPa0V00:00:0000:00:0000:00:00
DL9RDZ-12026-09-05 23:10:3063.98248-22.6092830°13km/h2814m5.3m/s-5.8°C9.8%0hPa0V00:00:0000:00:0000:00:00
DL9RDZ-12026-09-05 23:10:0963.98205-22.6108046°18km/h2719m6.5m/s-5.2°C9.3%0hPa0V00:00:0000:00:0000:00:00
DL9RDZ-12026-09-05 23:09:4863.98177-22.6121556°11km/h2619m4.9m/s-5.3°C14.7%0hPa0V00:00:0000:00:0000:00:00
DL9RDZ-12026-09-05 23:09:3863.98154-22.6127642°16km/h2574m3.6m/s-5.7°C24.8%0hPa0V00:00:0000:00:0000:00:00
DL9RDZ-12026-09-05 23:09:2863.98111-22.6131010°27km/h2530m5.5m/s-6.4°C52.2%0hPa0V00:00:0000:00:0000:00:00
DL9RDZ-12026-09-05 23:09:1763.98028-22.6137833°27km/h2470m6.2m/s-6.4°C63.7%0hPa0V00:00:0000:00:0000:00:00
DL9RDZ-12026-09-05 23:09:0563.97960-22.6147942°27km/h2420m6.6m/s-6.3°C69.8%0hPa0V00:00:0000:00:0000:00:00
DL9RDZ-12026-09-05 23:08:5463.97884-22.6158436°35km/h2360m6.8m/s-5.8°C71.2%0hPa0V00:00:0000:00:0000:00:00
DL9RDZ-12026-09-05 23:08:4363.97812-22.6168335°27km/h2301m5.2m/s-5.3°C69.6%0hPa0V00:00:0000:00:0000:00:00
DL9RDZ-12026-09-05 23:08:3263.97750-22.6174932°24km/h2241m3.6m/s-5.0°C67.1%0hPa0V00:00:0000:00:0000:00:00
DL9RDZ-12026-09-05 23:08:2263.97704-22.6180226°22km/h2190m5.1m/s-4.7°C69.4%0hPa0V00:00:0000:00:0000:00:00
DL9RDZ-12026-09-05 23:08:1163.97658-22.6183537°20km/h2145m4.5m/s-4.3°C71.5%0hPa0V00:00:0000:00:0000:00:00
DL9RDZ-12026-09-05 23:08:0163.97640-22.618547km/h2093m5.6m/s-3.9°C74.4%0hPa0V00:00:0000:00:0000:00:00
DL9RDZ-12026-09-05 23:07:5063.97625-22.6186934°7km/h2040m5.6m/s-3.6°C77.2%0hPa0V00:00:0000:00:0000:00:00
DL9RDZ-12026-09-05 23:07:3963.97595-22.61879358°7km/h1987m3.7m/s-3.1°C81.3%0hPa0V00:00:0000:00:0000:00:00
DL9RDZ-12026-09-05 23:05:5763.97219-22.6215819°27km/h1467m4.2m/s0.0°C94.9%0hPa0V00:00:0000:00:0000:00:00
DL9RDZ-12026-09-05 23:05:4763.97176-22.6217515km/h1409m6.7m/s0.6°C91.7%0hPa0V00:00:0000:00:0000:00:00
DL9RDZ-12026-09-05 23:05:3763.97133-22.6220736°15km/h1352m4.1m/s1.1°C0%0hPa0V00:00:0000:00:0000:00:00
DL9RDZ-12026-09-05 23:05:2663.97092-22.6223223°24km/h1293m5.2m/s1.5°C0%0hPa0V00:00:0000:00:0000:00:00
DL9RDZ-12026-09-05 23:05:1663.97058-22.6228252°11km/h1245m6.4m/s1.6°C0%0hPa0V00:00:0000:00:0000:00:00
DL9RDZ-12026-09-05 23:05:0663.97040-22.623010km/h1184m5.9m/s0°C0%0hPa0V00:00:0000:00:0000:00:00
DL9RDZ-12026-09-05 23:04:5563.97027-22.6226712°11km/h1140m4.5m/s0°C0%0hPa0V00:00:0000:00:0000:00:00
DL9RDZ-12026-09-05 23:04:4363.97000-22.6229236°11km/h1076m4.4m/s0°C0%0hPa0V00:00:0000:00:0000:00:00
DL9RDZ-12026-09-05 23:04:3363.96962-22.6233236°16km/h1027m3.9m/s0°C0%0hPa0V00:00:0000:00:0000:00:00
DL9RDZ-12026-09-05 23:04:2163.96942-22.62344343°4km/h956m7.0m/s0°C0%0hPa0V00:00:0000:00:0000:00:00
DL9RDZ-12026-09-05 23:04:1063.96920-22.6234816°13km/h895m5.1m/s0°C0%0hPa0V00:00:0000:00:0000:00:00
DL9RDZ-12026-09-05 23:03:5763.96889-22.62336318°13km/h829m5.5m/s0°C0%0hPa0V00:00:0000:00:0000:00:00
DL9RDZ-12026-09-05 23:03:4663.96873-22.62281281°11km/h770m4.3m/s0°C0%0hPa0V00:00:0000:00:0000:00:00
DL9RDZ-12026-09-05 23:03:3663.96856-22.62226336°16km/h713m5.0m/s0°C0%0hPa0V00:00:0000:00:0000:00:00


GPX KML Map

© wettersonde.net (DO2JMG) - 2026  -  -